Time,TemperatureF,DewpointF,PressureIn,WindDirection,WindDirectionDegrees,WindSpeedMPH,WindSpeedGustMPH,Humidity,HourlyPrecipIn,Conditions,Clouds,dailyrainin,SoftwareType,DateUTC
2013-04-14 00:00:00,42.0,37.5,30.03,East,100,0.0,1.0,84,0.00,,,0.00,Wunderground v.1.15,2013-04-14 04:00:00,
2013-04-14 00:01:00,42.0,37.5,30.03,East,100,0.0,0.0,84,0.00,,,0.00,Wunderground v.1.15,2013-04-14 04:01:00,
2013-04-14 00:05:00,41.8,37.3,30.03,East,100,0.0,0.0,84,0.00,,,0.00,Wunderground v.1.15,2013-04-14 04:05:00,
2013-04-14 00:06:00,41.8,37.3,30.03,East,100,0.0,0.0,84,0.00,,,0.00,Wunderground v.1.15,2013-04-14 04:06:00,
2013-04-14 00:07:00,41.8,37.3,30.03,East,100,2.0,2.0,84,0.00,,,0.00,Wunderground v.1.15,2013-04-14 04:07:00,
2013-04-14 00:09:00,41.7,37.2,30.03,East,100,0.0,2.0,84,0.00,,,0.00,Wunderground v.1.15,2013-04-14 04:09:00,
2013-04-14 00:11:00,41.6,37.1,30.04,East,100,0.0,2.0,84,0.00,,,0.00,Wunderground v.1.15,2013-04-14 04:11:00,
2013-04-14 00:15:00,41.4,37.2,30.04,East,100,3.0,3.0,85,0.00,,,0.00,Wunderground v.1.15,2013-04-14 04:15:00,
2013-04-14 00:16:00,41.4,37.2,30.04,East,100,0.0,3.0,85,0.00,,,0.00,Wunderground v.1.15,2013-04-14 04:16:00,
2013-04-14 00:17:00,41.4,37.2,30.04,East,100,1.0,3.0,85,0.00,,,0.00,Wunderground v.1.15,2013-04-14 04:17:00,
2013-04-14 00:22:00,41.3,37.1,30.04,East,100,0.0,2.0,85,0.00,,,0.00,Wunderground v.1.15,2013-04-14 04:22:00,
2013-04-14 00:23:00,41.3,37.1,30.04,East,100,1.0,2.0,85,0.00,,,0.00,Wunderground v.1.15,2013-04-14 04:23:00,
2013-04-14 00:28:00,41.2,37.3,30.04,East,100,2.0,3.0,86,0.00,,,0.00,Wunderground v.1.15,2013-04-14 04:28:00,
2013-04-14 00:29:00,41.2,37.3,30.04,East,100,2.0,3.0,86,0.00,,,0.00,Wunderground v.1.15,2013-04-14 04:29:00,
2013-04-14 00:32:00,41.1,37.2,30.04,East,100,1.0,4.0,86,0.00,,,0.00,Wunderground v.1.15,2013-04-14 04:32:00,
2013-04-14 00:36:00,41.1,37.2,30.04,East,100,2.0,4.0,86,0.00,,,0.00,Wunderground v.1.15,2013-04-14 04:36:00,
2013-04-14 00:37:00,41.0,37.1,30.04,East,100,2.0,4.0,86,0.00,,,0.00,Wunderground v.1.15,2013-04-14 04:37:00,
2013-04-14 00:43:00,41.0,37.1,30.04,East,100,2.0,2.0,86,0.00,,,0.00,Wunderground v.1.15,2013-04-14 04:43:00,
2013-04-14 00:44:00,41.0,37.1,30.04,East,100,2.0,2.0,86,0.00,,,0.00,Wunderground v.1.15,2013-04-14 04:44:00,
2013-04-14 00:48:00,40.9,37.0,30.03,East,100,1.0,2.0,86,0.00,,,0.00,Wunderground v.1.15,2013-04-14 04:48:00,
2013-04-14 00:50:00,40.9,37.0,30.03,East,100,0.0,2.0,86,0.00,,,0.00,Wunderground v.1.15,2013-04-14 04:50:00,
2013-04-14 00:53:00,40.9,37.0,30.03,East,100,0.0,2.0,86,0.00,,,0.00,Wunderground v.1.15,2013-04-14 04:53:00,
2013-04-14 00:54:00,40.9,37.0,30.03,East,100,0.0,2.0,86,0.00,,,0.00,Wunderground v.1.15,2013-04-14 04:54:00,
2013-04-14 00:59:00,40.7,36.8,30.03,East,100,0.0,2.0,86,0.00,,,0.00,Wunderground v.1.15,2013-04-14 04:59:00,
2013-04-14 01:00:00,40.7,36.8,30.03,East,100,0.0,0.0,86,0.00,,,0.00,Wunderground v.1.15,2013-04-14 05:00:00,
2013-04-14 01:05:00,40.5,36.6,30.03,East,100,2.0,2.0,86,0.00,,,0.00,Wunderground v.1.15,2013-04-14 05:05:00,
2013-04-14 01:07:00,40.5,36.9,30.03,East,100,2.0,2.0,87,0.00,,,0.00,Wunderground v.1.15,2013-04-14 05:07:00,
2013-04-14 01:09:00,40.4,36.8,30.03,East,100,1.0,2.0,87,0.00,,,0.00,Wunderground v.1.15,2013-04-14 05:09:00,
2013-04-14 01:11:00,40.4,36.8,30.03,East,100,0.0,1.0,87,0.00,,,0.00,Wunderground v.1.15,2013-04-14 05:11:00,
2013-04-14 01:14:00,40.4,36.8,30.03,East,100,0.0,1.0,87,0.00,,,0.00,Wunderground v.1.15,2013-04-14 05:14:00,
2013-04-14 01:15:00,40.4,36.8,30.03,East,100,0.0,1.0,87,0.00,,,0.00,Wunderground v.1.15,2013-04-14 05:15:00,
2013-04-14 01:22:00,40.2,36.6,30.03,East,100,0.0,0.0,87,0.00,,,0.00,Wunderground v.1.15,2013-04-14 05:22:00,
2013-04-14 01:23:00,40.2,36.6,30.03,East,100,0.0,0.0,87,0.00,,,0.00,Wunderground v.1.15,2013-04-14 05:23:00,
2013-04-14 01:28:00,40.1,36.5,30.03,East,100,0.0,0.0,87,0.00,,,0.00,Wunderground v.1.15,2013-04-14 05:28:00,
2013-04-14 01:29:00,40.0,36.4,30.02,East,100,0.0,0.0,87,0.00,,,0.00,Wunderground v.1.15,2013-04-14 05:29:00,
2013-04-14 01:33:00,39.9,36.3,30.02,East,101,0.0,0.0,87,0.00,,,0.00,Wunderground v.1.15,2013-04-14 05:33:00,
2013-04-14 01:34:00,39.9,36.6,30.02,East,100,0.0,0.0,88,0.00,,,0.00,Wunderground v.1.15,2013-04-14 05:34:00,
2013-04-14 01:35:00,39.8,36.5,30.02,East,100,0.0,0.0,88,0.00,,,0.00,Wunderground v.1.15,2013-04-14 05:35:00,
2013-04-14 01:40:00,39.7,36.4,30.02,East,101,0.0,0.0,88,0.00,,,0.00,Wunderground v.1.15,2013-04-14 05:40:00,
2013-04-14 01:41:00,39.6,36.3,30.02,East,100,0.0,0.0,88,0.00,,,0.00,Wunderground v.1.15,2013-04-14 05:41:00,
2013-04-14 01:42:00,39.6,36.3,30.02,East,100,0.0,0.0,88,0.00,,,0.00,Wunderground v.1.15,2013-04-14 05:42:00,
2013-04-14 01:43:00,39.6,36.3,30.02,East,100,0.0,0.0,88,0.00,,,0.00,Wunderground v.1.15,2013-04-14 05:43:00,
2013-04-14 01:45:00,39.5,36.2,30.02,East,100,0.0,0.0,88,0.00,,,0.00,Wunderground v.1.15,2013-04-14 05:45:00,
2013-04-14 01:48:00,39.4,36.1,30.02,East,100,0.0,0.0,88,0.00,,,0.00,Wunderground v.1.15,2013-04-14 05:48:00,
2013-04-14 01:50:00,39.3,36.0,30.02,East,100,0.0,0.0,88,0.00,,,0.00,Wunderground v.1.15,2013-04-14 05:50:00,
2013-04-14 01:51:00,39.3,36.0,30.02,East,101,0.0,0.0,88,0.00,,,0.00,Wunderground v.1.15,2013-04-14 05:51:00,
2013-04-14 01:54:00,39.2,35.9,30.02,East,100,0.0,0.0,88,0.00,,,0.00,Wunderground v.1.15,2013-04-14 05:54:00,
2013-04-14 01:56:00,39.2,35.9,30.02,East,100,0.0,0.0,88,0.00,,,0.00,Wunderground v.1.15,2013-04-14 05:56:00,
2013-04-14 01:59:00,39.1,36.1,30.02,East,100,0.0,0.0,89,0.00,,,0.00,Wunderground v.1.15,2013-04-14 05:59:00,
2013-04-14 02:01:00,39.0,36.0,30.02,East,100,0.0,0.0,89,0.00,,,0.00,Wunderground v.1.15,2013-04-14 06:01:00,
2013-04-14 02:02:00,39.0,36.0,30.02,East,100,0.0,0.0,89,0.00,,,0.00,Wunderground v.1.15,2013-04-14 06:02:00,
2013-04-14 02:04:00,39.0,36.0,30.02,East,100,0.0,0.0,89,0.00,,,0.00,Wunderground v.1.15,2013-04-14 06:04:00,
2013-04-14 02:06:00,38.9,35.9,30.02,East,100,0.0,0.0,89,0.00,,,0.00,Wunderground v.1.15,2013-04-14 06:06:00,
2013-04-14 02:07:00,38.9,35.9,30.02,East,100,0.0,0.0,89,0.00,,,0.00,Wunderground v.1.15,2013-04-14 06:07:00,
2013-04-14 02:09:00,38.9,35.9,30.02,East,100,0.0,0.0,89,0.00,,,0.00,Wunderground v.1.15,2013-04-14 06:09:00,
2013-04-14 02:11:00,38.9,35.9,30.02,East,100,0.0,0.0,89,0.00,,,0.00,Wunderground v.1.15,2013-04-14 06:11:00,
2013-04-14 02:12:00,38.9,35.9,30.02,East,100,0.0,0.0,89,0.00,,,0.00,Wunderground v.1.15,2013-04-14 06:12:00,
2013-04-14 02:14:00,38.8,35.8,30.02,East,100,0.0,2.0,89,0.00,,,0.00,Wunderground v.1.15,2013-04-14 06:14:00,
2013-04-14 02:17:00,38.8,35.8,30.02,East,100,2.0,2.0,89,0.00,,,0.00,Wunderground v.1.15,2013-04-14 06:17:00,
2013-04-14 02:19:00,38.7,35.7,30.02,East,100,3.0,3.0,89,0.00,,,0.00,Wunderground v.1.15,2013-04-14 06:19:00,
2013-04-14 02:22:00,38.7,35.7,30.02,East,100,1.0,2.0,89,0.00,,,0.00,Wunderground v.1.15,2013-04-14 06:22:00,
2013-04-14 02:24:00,38.6,35.6,30.02,East,101,0.0,2.0,89,0.00,,,0.00,Wunderground v.1.15,2013-04-14 06:24:00,
2013-04-14 02:27:00,38.6,35.6,30.02,East,100,2.0,2.0,89,0.00,,,0.00,Wunderground v.1.15,2013-04-14 06:27:00,
2013-04-14 02:28:00,38.6,35.9,30.02,East,100,1.0,2.0,90,0.00,,,0.00,Wunderground v.1.15,2013-04-14 06:28:00,
2013-04-14 02:29:00,38.6,35.9,30.02,East,100,0.0,2.0,90,0.00,,,0.00,Wunderground v.1.15,2013-04-14 06:29:00,
2013-04-14 02:32:00,38.6,35.9,30.02,East,101,2.0,2.0,90,0.00,,,0.00,Wunderground v.1.15,2013-04-14 06:32:00,
2013-04-14 02:33:00,38.6,35.9,30.02,East,100,1.0,2.0,90,0.00,,,0.00,Wunderground v.1.15,2013-04-14 06:33:00,
2013-04-14 02:34:00,38.5,35.8,30.02,East,100,2.0,2.0,90,0.00,,,0.00,Wunderground v.1.15,2013-04-14 06:34:00,
2013-04-14 02:37:00,38.5,35.8,30.02,East,100,0.0,3.0,90,0.00,,,0.00,Wunderground v.1.15,2013-04-14 06:37:00,
2013-04-14 02:38:00,38.5,35.8,30.02,East,100,2.0,3.0,90,0.00,,,0.00,Wunderground v.1.15,2013-04-14 06:38:00,
2013-04-14 02:39:00,38.6,35.9,30.02,East,100,0.0,3.0,90,0.00,,,0.00,Wunderground v.1.15,2013-04-14 06:39:00,
2013-04-14 02:42:00,38.5,35.8,30.01,East,100,0.0,2.0,90,0.00,,,0.00,Wunderground v.1.15,2013-04-14 06:42:00,
2013-04-14 02:43:00,38.5,35.8,30.01,East,100,0.0,2.0,90,0.00,,,0.00,Wunderground v.1.15,2013-04-14 06:43:00,
2013-04-14 02:44:00,38.5,35.8,30.02,East,100,0.0,2.0,90,0.00,,,0.00,Wunderground v.1.15,2013-04-14 06:44:00,
2013-04-14 02:45:00,38.4,35.7,30.02,East,100,0.0,2.0,90,0.00,,,0.00,Wunderground v.1.15,2013-04-14 06:45:00,
2013-04-14 02:48:00,38.4,35.7,30.02,East,100,1.0,2.0,90,0.00,,,0.00,Wunderground v.1.15,2013-04-14 06:48:00,
2013-04-14 02:49:00,38.4,35.7,30.02,East,100,1.0,2.0,90,0.00,,,0.00,Wunderground v.1.15,2013-04-14 06:49:00,
2013-04-14 02:50:00,38.3,35.6,30.02,East,100,1.0,1.0,90,0.00,,,0.00,Wunderground v.1.15,2013-04-14 06:50:00,
2013-04-14 02:53:00,38.3,35.6,30.02,East,100,0.0,2.0,90,0.00,,,0.00,Wunderground v.1.15,2013-04-14 06:53:00,
2013-04-14 02:54:00,38.3,35.6,30.02,East,100,0.0,2.0,90,0.00,,,0.00,Wunderground v.1.15,2013-04-14 06:54:00,
2013-04-14 02:57:00,38.3,35.6,30.02,East,100,0.0,3.0,90,0.00,,,0.00,Wunderground v.1.15,2013-04-14 06:57:00,
2013-04-14 02:58:00,38.3,35.6,30.02,East,100,0.0,3.0,90,0.00,,,0.00,Wunderground v.1.15,2013-04-14 06:58:00,
2013-04-14 02:59:00,38.3,35.6,30.02,East,101,0.0,3.0,90,0.00,,,0.00,Wunderground v.1.15,2013-04-14 06:59:00,
2013-04-14 03:03:00,38.3,35.6,30.02,East,100,0.0,1.0,90,0.00,,,0.00,Wunderground v.1.15,2013-04-14 07:03:00,
2013-04-14 03:04:00,38.3,35.6,30.02,East,100,0.0,1.0,90,0.00,,,0.00,Wunderground v.1.15,2013-04-14 07:04:00,
2013-04-14 03:05:00,38.3,35.6,30.02,East,100,0.0,1.0,90,0.00,,,0.00,Wunderground v.1.15,2013-04-14 07:05:00,
2013-04-14 03:08:00,38.3,35.6,30.02,East,100,0.0,1.0,90,0.00,,,0.00,Wunderground v.1.15,2013-04-14 07:08:00,
2013-04-14 03:09:00,38.3,35.6,30.02,East,100,0.0,1.0,90,0.00,,,0.00,Wunderground v.1.15,2013-04-14 07:09:00,
2013-04-14 03:10:00,38.3,35.6,30.02,East,101,0.0,0.0,90,0.00,,,0.00,Wunderground v.1.15,2013-04-14 07:10:00,
2013-04-14 03:13:00,38.2,35.5,30.02,East,100,0.0,0.0,90,0.00,,,0.00,Wunderground v.1.15,2013-04-14 07:13:00,
2013-04-14 03:14:00,38.2,35.5,30.02,East,100,0.0,0.0,90,0.00,,,0.00,Wunderground v.1.15,2013-04-14 07:14:00,
2013-04-14 03:15:00,38.1,35.4,30.02,East,100,0.0,0.0,90,0.00,,,0.00,Wunderground v.1.15,2013-04-14 07:15:00,
2013-04-14 03:18:00,38.1,35.4,30.02,East,100,0.0,0.0,90,0.00,,,0.00,Wunderground v.1.15,2013-04-14 07:18:00,
2013-04-14 03:19:00,38.0,35.3,30.01,East,100,0.0,0.0,90,0.00,,,0.00,Wunderground v.1.15,2013-04-14 07:19:00,
2013-04-14 03:20:00,38.0,35.3,30.01,East,101,0.0,0.0,90,0.00,,,0.00,Wunderground v.1.15,2013-04-14 07:20:00,
2013-04-14 03:23:00,37.9,35.2,30.02,East,100,0.0,0.0,90,0.00,,,0.00,Wunderground v.1.15,2013-04-14 07:23:00,
2013-04-14 03:24:00,37.9,35.2,30.02,East,101,0.0,0.0,90,0.00,,,0.00,Wunderground v.1.15,2013-04-14 07:24:00,
2013-04-14 03:25:00,37.9,35.2,30.02,East,101,0.0,0.0,90,0.00,,,0.00,Wunderground v.1.15,2013-04-14 07:25:00,
2013-04-14 03:29:00,37.8,35.1,30.02,East,100,0.0,0.0,90,0.00,,,0.00,Wunderground v.1.15,2013-04-14 07:29:00,
2013-04-14 03:30:00,37.8,35.1,30.01,East,100,0.0,0.0,90,0.00,,,0.00,Wunderground v.1.15,2013-04-14 07:30:00,
2013-04-14 03:31:00,37.8,35.1,30.01,East,100,1.0,1.0,90,0.00,,,0.00,Wunderground v.1.15,2013-04-14 07:31:00,
2013-04-14 03:34:00,37.7,35.0,30.01,East,100,0.0,1.0,90,0.00,,,0.00,Wunderground v.1.15,2013-04-14 07:34:00,
2013-04-14 03:35:00,37.7,35.0,30.01,East,101,1.0,1.0,90,0.00,,,0.00,Wunderground v.1.15,2013-04-14 07:35:00,
2013-04-14 03:36:00,37.7,35.3,30.01,East,100,1.0,1.0,91,0.00,,,0.00,Wunderground v.1.15,2013-04-14 07:36:00,
2013-04-14 03:39:00,37.7,35.3,30.01,East,100,0.0,1.0,91,0.00,,,0.00,Wunderground v.1.15,2013-04-14 07:39:00,
2013-04-14 03:40:00,37.7,35.3,30.01,East,100,0.0,1.0,91,0.00,,,0.00,Wunderground v.1.15,2013-04-14 07:40:00,
2013-04-14 03:41:00,37.7,35.3,30.01,East,101,0.0,0.0,91,0.00,,,0.00,Wunderground v.1.15,2013-04-14 07:41:00,
2013-04-14 03:44:00,37.6,35.2,30.01,East,100,0.0,0.0,91,0.00,,,0.00,Wunderground v.1.15,2013-04-14 07:44:00,
2013-04-14 03:45:00,37.6,35.2,30.01,East,101,0.0,0.0,91,0.00,,,0.00,Wunderground v.1.15,2013-04-14 07:45:00,
2013-04-14 03:46:00,37.6,35.2,30.01,East,101,0.0,0.0,91,0.00,,,0.00,Wunderground v.1.15,2013-04-14 07:46:00,
2013-04-14 03:47:00,37.6,35.2,30.01,East,100,0.0,0.0,91,0.00,,,0.00,Wunderground v.1.15,2013-04-14 07:47:00,
2013-04-14 03:49:00,37.6,35.2,30.01,East,100,0.0,0.0,91,0.00,,,0.00,Wunderground v.1.15,2013-04-14 07:49:00,
2013-04-14 03:50:00,37.6,35.2,30.01,East,100,0.0,0.0,91,0.00,,,0.00,Wunderground v.1.15,2013-04-14 07:50:00,
2013-04-14 03:52:00,37.6,35.2,30.01,East,100,0.0,0.0,91,0.00,,,0.00,Wunderground v.1.15,2013-04-14 07:52:00,
2013-04-14 03:54:00,37.7,35.3,30.01,East,101,1.0,2.0,91,0.00,,,0.00,Wunderground v.1.15,2013-04-14 07:54:00,
2013-04-14 03:55:00,37.7,35.3,30.01,East,100,2.0,2.0,91,0.00,,,0.00,Wunderground v.1.15,2013-04-14 07:55:00,
2013-04-14 03:57:00,37.7,35.3,30.01,East,100,0.0,2.0,91,0.00,,,0.00,Wunderground v.1.15,2013-04-14 07:57:00,
2013-04-14 03:58:00,37.7,35.3,30.01,East,101,0.0,2.0,91,0.00,,,0.00,Wunderground v.1.15,2013-04-14 07:58:00,
2013-04-14 03:59:00,37.7,35.3,30.01,East,101,0.0,2.0,91,0.00,,,0.00,Wunderground v.1.15,2013-04-14 07:59:00,
2013-04-14 04:00:00,37.7,35.3,30.01,East,100,0.0,1.0,91,0.00,,,0.00,Wunderground v.1.15,2013-04-14 08:00:00,
2013-04-14 04:02:00,37.7,35.3,30.01,East,101,0.0,1.0,91,0.00,,,0.00,Wunderground v.1.15,2013-04-14 08:02:00,
2013-04-14 04:03:00,37.7,35.3,30.01,East,101,0.0,1.0,91,0.00,,,0.00,Wunderground v.1.15,2013-04-14 08:03:00,
2013-04-14 04:04:00,37.7,35.3,30.01,East,101,0.0,1.0,91,0.00,,,0.00,Wunderground v.1.15,2013-04-14 08:04:00,
2013-04-14 04:05:00,37.7,35.3,30.01,East,100,0.0,1.0,91,0.00,,,0.00,Wunderground v.1.15,2013-04-14 08:05:00,
2013-04-14 04:08:00,37.7,35.3,30.01,East,100,0.0,1.0,91,0.00,,,0.00,Wunderground v.1.15,2013-04-14 08:08:00,
2013-04-14 04:09:00,37.6,35.2,30.01,East,100,0.0,1.0,91,0.00,,,0.00,Wunderground v.1.15,2013-04-14 08:09:00,
2013-04-14 04:10:00,37.6,35.2,30.01,East,100,0.0,1.0,91,0.00,,,0.00,Wunderground v.1.15,2013-04-14 08:10:00,
2013-04-14 04:13:00,37.6,35.2,30.01,East,100,0.0,0.0,91,0.00,,,0.00,Wunderground v.1.15,2013-04-14 08:13:00,
2013-04-14 04:14:00,37.6,35.2,30.01,East,100,0.0,0.0,91,0.00,,,0.00,Wunderground v.1.15,2013-04-14 08:14:00,
2013-04-14 04:15:00,37.6,35.2,30.01,East,100,0.0,0.0,91,0.00,,,0.00,Wunderground v.1.15,2013-04-14 08:15:00,
2013-04-14 04:18:00,37.5,35.1,30.01,East,100,0.0,0.0,91,0.00,,,0.00,Wunderground v.1.15,2013-04-14 08:18:00,
2013-04-14 04:19:00,37.5,35.1,30.01,East,100,0.0,0.0,91,0.00,,,0.00,Wunderground v.1.15,2013-04-14 08:19:00,
2013-04-14 04:20:00,37.4,35.0,30.01,East,100,0.0,0.0,91,0.00,,,0.00,Wunderground v.1.15,2013-04-14 08:20:00,
2013-04-14 04:24:00,37.3,34.9,30.01,East,100,0.0,0.0,91,0.00,,,0.00,Wunderground v.1.15,2013-04-14 08:24:00,
2013-04-14 04:25:00,37.2,34.8,30.00,East,100,0.0,0.0,91,0.00,,,0.00,Wunderground v.1.15,2013-04-14 08:25:00,
2013-04-14 04:29:00,37.1,34.7,30.00,East,100,0.0,2.0,91,0.00,,,0.00,Wunderground v.1.15,2013-04-14 08:29:00,
2013-04-14 04:30:00,37.1,34.7,30.00,East,100,0.0,0.0,91,0.00,,,0.00,Wunderground v.1.15,2013-04-14 08:30:00,
2013-04-14 04:34:00,37.1,34.7,30.00,East,100,0.0,0.0,91,0.00,,,0.00,Wunderground v.1.15,2013-04-14 08:34:00,
2013-04-14 04:35:00,37.1,34.7,30.01,East,100,0.0,0.0,91,0.00,,,0.00,Wunderground v.1.15,2013-04-14 08:35:00,
2013-04-14 04:40:00,37.0,34.6,30.00,East,100,0.0,0.0,91,0.00,,,0.00,Wunderground v.1.15,2013-04-14 08:40:00,
2013-04-14 04:41:00,37.0,34.6,30.01,East,100,0.0,1.0,91,0.00,,,0.00,Wunderground v.1.15,2013-04-14 08:41:00,
2013-04-14 04:45:00,37.0,34.6,30.01,East,101,0.0,1.0,91,0.00,,,0.00,Wunderground v.1.15,2013-04-14 08:45:00,
2013-04-14 04:46:00,37.0,34.6,30.01,East,101,0.0,1.0,91,0.00,,,0.00,Wunderground v.1.15,2013-04-14 08:46:00,
2013-04-14 04:50:00,37.0,34.9,30.01,East,100,0.0,0.0,92,0.00,,,0.00,Wunderground v.1.15,2013-04-14 08:50:00,
2013-04-14 04:51:00,37.0,34.9,30.01,East,100,0.0,0.0,92,0.00,,,0.00,Wunderground v.1.15,2013-04-14 08:51:00,
2013-04-14 04:55:00,37.0,34.9,30.01,East,100,0.0,0.0,92,0.00,,,0.00,Wunderground v.1.15,2013-04-14 08:55:00,
2013-04-14 04:57:00,37.0,34.9,30.01,East,100,0.0,0.0,92,0.00,,,0.00,Wunderground v.1.15,2013-04-14 08:57:00,
2013-04-14 05:01:00,36.9,34.8,30.01,East,101,0.0,0.0,92,0.00,,,0.00,Wunderground v.1.15,2013-04-14 09:01:00,
2013-04-14 05:02:00,36.9,34.8,30.01,East,101,0.0,0.0,92,0.00,,,0.00,Wunderground v.1.15,2013-04-14 09:02:00,
2013-04-14 05:06:00,36.9,34.8,30.01,East,100,0.0,0.0,92,0.00,,,0.00,Wunderground v.1.15,2013-04-14 09:06:00,
2013-04-14 05:07:00,36.9,34.8,30.01,East,100,0.0,0.0,92,0.00,,,0.00,Wunderground v.1.15,2013-04-14 09:07:00,
2013-04-14 05:11:00,36.8,34.7,30.01,East,101,0.0,0.0,92,0.00,,,0.00,Wunderground v.1.15,2013-04-14 09:11:00,
2013-04-14 05:12:00,36.8,34.7,30.01,East,100,0.0,0.0,92,0.00,,,0.00,Wunderground v.1.15,2013-04-14 09:12:00,
2013-04-14 05:16:00,36.8,34.7,30.00,East,101,0.0,0.0,92,0.00,,,0.00,Wunderground v.1.15,2013-04-14 09:16:00,
2013-04-14 05:17:00,36.8,34.7,30.00,East,100,0.0,0.0,92,0.00,,,0.00,Wunderground v.1.15,2013-04-14 09:17:00,
2013-04-14 05:18:00,36.8,34.7,30.00,East,100,0.0,0.0,92,0.00,,,0.00,Wunderground v.1.15,2013-04-14 09:18:00,
2013-04-14 05:22:00,36.8,34.7,30.00,East,100,0.0,0.0,92,0.00,,,0.00,Wunderground v.1.15,2013-04-14 09:22:00,
2013-04-14 05:23:00,36.8,34.7,30.00,East,101,0.0,0.0,92,0.00,,,0.00,Wunderground v.1.15,2013-04-14 09:23:00,
2013-04-14 05:27:00,36.8,34.7,30.00,East,100,0.0,0.0,92,0.00,,,0.00,Wunderground v.1.15,2013-04-14 09:27:00,
2013-04-14 05:28:00,36.8,34.7,30.00,East,100,0.0,0.0,92,0.00,,,0.00,Wunderground v.1.15,2013-04-14 09:28:00,
2013-04-14 05:33:00,36.8,34.7,30.00,East,100,0.0,0.0,92,0.00,,,0.00,Wunderground v.1.15,2013-04-14 09:33:00,
2013-04-14 05:38:00,36.8,34.7,30.00,East,100,0.0,0.0,92,0.00,,,0.00,Wunderground v.1.15,2013-04-14 09:38:00,
2013-04-14 05:39:00,36.8,34.7,30.00,East,100,0.0,0.0,92,0.00,,,0.00,Wunderground v.1.15,2013-04-14 09:39:00,
2013-04-14 05:43:00,36.8,34.7,30.00,East,100,0.0,0.0,92,0.00,,,0.00,Wunderground v.1.15,2013-04-14 09:43:00,
2013-04-14 05:44:00,36.8,34.7,30.00,East,101,0.0,0.0,92,0.00,,,0.00,Wunderground v.1.15,2013-04-14 09:44:00,
2013-04-14 05:48:00,36.8,34.7,30.00,East,101,0.0,0.0,92,0.00,,,0.00,Wunderground v.1.15,2013-04-14 09:48:00,
2013-04-14 05:49:00,36.7,34.6,30.00,East,100,0.0,0.0,92,0.00,,,0.00,Wunderground v.1.15,2013-04-14 09:49:00,
2013-04-14 05:53:00,36.6,34.5,30.00,East,101,0.0,0.0,92,0.00,,,0.00,Wunderground v.1.15,2013-04-14 09:53:00,
2013-04-14 05:54:00,36.6,34.5,30.00,East,100,0.0,0.0,92,0.00,,,0.00,Wunderground v.1.15,2013-04-14 09:54:00,
2013-04-14 05:58:00,36.6,34.5,30.00,East,100,0.0,0.0,92,0.00,,,0.00,Wunderground v.1.15,2013-04-14 09:58:00,
2013-04-14 05:59:00,36.5,34.7,30.00,East,101,0.0,0.0,93,0.00,,,0.00,Wunderground v.1.15,2013-04-14 09:59:00,
2013-04-14 06:00:00,36.5,34.7,30.00,East,100,0.0,0.0,93,0.00,,,0.00,Wunderground v.1.15,2013-04-14 10:00:00,
2013-04-14 06:03:00,36.5,34.4,30.00,East,100,0.0,0.0,92,0.00,,,0.00,Wunderground v.1.15,2013-04-14 10:03:00,
2013-04-14 06:04:00,36.5,34.4,30.00,East,100,0.0,0.0,92,0.00,,,0.00,Wunderground v.1.15,2013-04-14 10:04:00,
2013-04-14 06:05:00,36.5,34.4,30.00,East,100,0.0,0.0,92,0.00,,,0.00,Wunderground v.1.15,2013-04-14 10:05:00,
2013-04-14 06:08:00,36.4,34.3,30.00,East,101,0.0,0.0,92,0.00,,,0.00,Wunderground v.1.15,2013-04-14 10:08:00,
2013-04-14 06:09:00,36.4,34.3,30.00,East,100,0.0,0.0,92,0.00,,,0.00,Wunderground v.1.15,2013-04-14 10:09:00,
2013-04-14 06:10:00,36.4,34.3,30.00,East,100,0.0,0.0,92,0.00,,,0.00,Wunderground v.1.15,2013-04-14 10:10:00,
2013-04-14 06:13:00,36.4,34.3,30.00,East,101,0.0,0.0,92,0.00,,,0.00,Wunderground v.1.15,2013-04-14 10:13:00,
2013-04-14 06:14:00,36.4,34.3,30.00,East,101,0.0,0.0,92,0.00,,,0.00,Wunderground v.1.15,2013-04-14 10:14:00,
2013-04-14 06:15:00,36.4,34.3,30.00,East,100,0.0,0.0,92,0.00,,,0.00,Wunderground v.1.15,2013-04-14 10:15:00,
2013-04-14 06:18:00,36.4,34.3,29.99,East,101,0.0,0.0,92,0.00,,,0.00,Wunderground v.1.15,2013-04-14 10:18:00,
2013-04-14 06:19:00,36.4,34.3,29.99,East,100,0.0,0.0,92,0.00,,,0.00,Wunderground v.1.15,2013-04-14 10:19:00,
2013-04-14 06:20:00,36.4,34.3,29.99,East,100,0.0,0.0,92,0.00,,,0.00,Wunderground v.1.15,2013-04-14 10:20:00,
2013-04-14 06:21:00,36.4,34.3,29.99,East,101,0.0,0.0,92,0.00,,,0.00,Wunderground v.1.15,2013-04-14 10:21:00,
2013-04-14 06:24:00,36.4,34.6,29.99,East,101,0.0,0.0,93,0.00,,,0.00,Wunderground v.1.15,2013-04-14 10:24:00,
2013-04-14 06:25:00,36.4,34.6,29.99,East,100,0.0,0.0,93,0.00,,,0.00,Wunderground v.1.15,2013-04-14 10:25:00,
2013-04-14 06:26:00,36.4,34.6,29.99,East,100,0.0,0.0,93,0.00,,,0.00,Wunderground v.1.15,2013-04-14 10:26:00,
2013-04-14 06:29:00,36.4,34.6,29.99,East,101,0.0,0.0,93,0.00,,,0.00,Wunderground v.1.15,2013-04-14 10:29:00,
2013-04-14 06:30:00,36.3,34.5,29.99,East,101,0.0,0.0,93,0.00,,,0.00,Wunderground v.1.15,2013-04-14 10:30:00,
2013-04-14 06:32:00,36.3,34.5,29.99,East,100,0.0,0.0,93,0.00,,,0.00,Wunderground v.1.15,2013-04-14 10:32:00,
2013-04-14 06:34:00,36.3,34.5,30.00,East,101,0.0,0.0,93,0.00,,,0.00,Wunderground v.1.15,2013-04-14 10:34:00,
2013-04-14 06:35:00,36.3,34.5,30.00,East,101,0.0,0.0,93,0.00,,,0.00,Wunderground v.1.15,2013-04-14 10:35:00,
2013-04-14 06:37:00,36.2,34.4,30.00,East,100,0.0,0.0,93,0.00,,,0.00,Wunderground v.1.15,2013-04-14 10:37:00,
2013-04-14 06:39:00,36.2,34.4,30.00,East,100,0.0,0.0,93,0.00,,,0.00,Wunderground v.1.15,2013-04-14 10:39:00,
2013-04-14 06:40:00,36.2,34.4,30.00,East,100,0.0,0.0,93,0.00,,,0.00,Wunderground v.1.15,2013-04-14 10:40:00,
2013-04-14 06:42:00,36.2,34.4,30.00,East,101,0.0,0.0,93,0.00,,,0.00,Wunderground v.1.15,2013-04-14 10:42:00,
2013-04-14 06:45:00,36.2,34.4,30.01,East,101,0.0,0.0,93,0.00,,,0.00,Wunderground v.1.15,2013-04-14 10:45:00,
2013-04-14 06:46:00,36.2,34.4,30.01,East,101,0.0,0.0,93,0.00,,,0.00,Wunderground v.1.15,2013-04-14 10:46:00,
2013-04-14 06:47:00,36.1,34.3,30.01,East,101,0.0,0.0,93,0.00,,,0.00,Wunderground v.1.15,2013-04-14 10:47:00,
2013-04-14 06:50:00,36.1,34.3,30.01,East,100,0.0,0.0,93,0.00,,,0.00,Wunderground v.1.15,2013-04-14 10:50:00,
2013-04-14 06:51:00,36.1,34.3,30.01,East,101,0.0,0.0,93,0.00,,,0.00,Wunderground v.1.15,2013-04-14 10:51:00,
2013-04-14 06:52:00,36.1,34.3,30.01,East,100,0.0,0.0,93,0.00,,,0.00,Wunderground v.1.15,2013-04-14 10:52:00,
2013-04-14 06:53:00,36.2,34.4,30.01,East,100,0.0,0.0,93,0.00,,,0.00,Wunderground v.1.15,2013-04-14 10:53:00,
2013-04-14 06:55:00,36.2,34.4,30.01,East,101,0.0,0.0,93,0.00,,,0.00,Wunderground v.1.15,2013-04-14 10:55:00,
2013-04-14 06:56:00,36.2,34.4,30.01,East,100,0.0,0.0,93,0.00,,,0.00,Wunderground v.1.15,2013-04-14 10:56:00,
2013-04-14 06:57:00,36.3,34.5,30.01,East,100,0.0,0.0,93,0.00,,,0.00,Wunderground v.1.15,2013-04-14 10:57:00,
2013-04-14 06:58:00,36.3,34.5,30.01,East,100,0.0,0.0,93,0.00,,,0.00,Wunderground v.1.15,2013-04-14 10:58:00,
2013-04-14 07:00:00,36.4,34.6,30.01,East,100,0.0,0.0,93,0.00,,,0.00,Wunderground v.1.15,2013-04-14 11:00:00,
2013-04-14 07:01:00,36.4,34.6,30.01,East,100,0.0,0.0,93,0.00,,,0.00,Wunderground v.1.15,2013-04-14 11:01:00,
2013-04-14 07:03:00,36.4,34.6,30.01,East,100,0.0,0.0,93,0.00,,,0.00,Wunderground v.1.15,2013-04-14 11:03:00,
2013-04-14 07:05:00,36.4,34.6,30.01,East,100,0.0,0.0,93,0.00,,,0.00,Wunderground v.1.15,2013-04-14 11:05:00,
2013-04-14 07:07:00,36.4,34.6,30.01,East,101,0.0,0.0,93,0.00,,,0.00,Wunderground v.1.15,2013-04-14 11:07:00,
2013-04-14 07:08:00,36.4,34.6,30.01,East,100,0.0,0.0,93,0.00,,,0.00,Wunderground v.1.15,2013-04-14 11:08:00,
2013-04-14 07:10:00,36.4,34.6,30.01,East,100,0.0,0.0,93,0.00,,,0.00,Wunderground v.1.15,2013-04-14 11:10:00,
2013-04-14 07:12:00,36.4,34.6,30.01,East,100,0.0,0.0,93,0.00,,,0.00,Wunderground v.1.15,2013-04-14 11:12:00,
2013-04-14 07:13:00,36.4,34.6,30.01,East,100,0.0,0.0,93,0.00,,,0.00,Wunderground v.1.15,2013-04-14 11:13:00,
2013-04-14 07:14:00,36.4,34.6,30.01,East,101,0.0,0.0,93,0.00,,,0.00,Wunderground v.1.15,2013-04-14 11:14:00,
2013-04-14 07:15:00,36.4,34.6,30.01,East,100,0.0,0.0,93,0.00,,,0.00,Wunderground v.1.15,2013-04-14 11:15:00,
2013-04-14 07:17:00,36.4,34.6,30.01,East,100,0.0,0.0,93,0.00,,,0.00,Wunderground v.1.15,2013-04-14 11:17:00,
2013-04-14 07:18:00,36.3,34.5,30.01,East,101,0.0,0.0,93,0.00,,,0.00,Wunderground v.1.15,2013-04-14 11:18:00,
2013-04-14 07:19:00,36.3,34.5,30.01,East,100,0.0,0.0,93,0.00,,,0.00,Wunderground v.1.15,2013-04-14 11:19:00,
2013-04-14 07:21:00,36.3,34.5,30.01,East,100,0.0,0.0,93,0.00,,,0.00,Wunderground v.1.15,2013-04-14 11:21:00,
2013-04-14 07:23:00,36.3,34.5,30.01,East,101,0.0,0.0,93,0.00,,,0.00,Wunderground v.1.15,2013-04-14 11:23:00,
2013-04-14 07:24:00,36.3,34.5,30.01,East,100,0.0,0.0,93,0.00,,,0.00,Wunderground v.1.15,2013-04-14 11:24:00,
2013-04-14 07:26:00,36.3,34.5,30.01,East,100,0.0,0.0,93,0.00,,,0.00,Wunderground v.1.15,2013-04-14 11:26:00,
2013-04-14 07:28:00,36.3,34.5,30.01,East,101,0.0,0.0,93,0.00,,,0.00,Wunderground v.1.15,2013-04-14 11:28:00,
2013-04-14 07:29:00,36.3,34.5,30.01,East,100,0.0,0.0,93,0.00,,,0.00,Wunderground v.1.15,2013-04-14 11:29:00,
2013-04-14 07:31:00,36.4,34.6,30.01,East,100,0.0,0.0,93,0.00,,,0.00,Wunderground v.1.15,2013-04-14 11:31:00,
2013-04-14 07:33:00,36.4,34.6,30.01,East,101,0.0,0.0,93,0.00,,,0.00,Wunderground v.1.15,2013-04-14 11:33:00,
2013-04-14 07:34:00,36.4,34.6,30.01,East,100,0.0,0.0,93,0.00,,,0.00,Wunderground v.1.15,2013-04-14 11:34:00,
2013-04-14 07:35:00,36.4,34.6,30.01,East,100,0.0,0.0,93,0.00,,,0.00,Wunderground v.1.15,2013-04-14 11:35:00,
2013-04-14 07:37:00,36.4,34.6,30.01,East,100,0.0,0.0,93,0.00,,,0.00,Wunderground v.1.15,2013-04-14 11:37:00,
2013-04-14 07:38:00,36.5,34.7,30.01,East,100,0.0,0.0,93,0.00,,,0.00,Wunderground v.1.15,2013-04-14 11:38:00,
2013-04-14 07:39:00,36.5,34.7,30.01,East,100,0.0,0.0,93,0.00,,,0.00,Wunderground v.1.15,2013-04-14 11:39:00,
2013-04-14 07:40:00,36.5,34.7,30.01,East,101,0.0,0.0,93,0.00,,,0.00,Wunderground v.1.15,2013-04-14 11:40:00,
2013-04-14 07:42:00,36.6,34.8,30.01,East,101,0.0,0.0,93,0.00,,,0.00,Wunderground v.1.15,2013-04-14 11:42:00,
2013-04-14 07:43:00,36.7,34.9,30.01,East,101,0.0,0.0,93,0.00,,,0.00,Wunderground v.1.15,2013-04-14 11:43:00,
2013-04-14 07:44:00,36.8,35.0,30.01,East,100,0.0,0.0,93,0.00,,,0.00,Wunderground v.1.15,2013-04-14 11:44:00,
2013-04-14 07:45:00,36.8,35.0,30.01,East,100,0.0,0.0,93,0.00,,,0.00,Wunderground v.1.15,2013-04-14 11:45:00,
2013-04-14 07:48:00,36.9,35.1,30.02,East,100,0.0,0.0,93,0.00,,,0.00,Wunderground v.1.15,2013-04-14 11:48:00,
2013-04-14 07:49:00,37.0,35.2,30.02,East,100,0.0,0.0,93,0.00,,,0.00,Wunderground v.1.15,2013-04-14 11:49:00,
2013-04-14 07:50:00,37.0,35.2,30.02,East,100,0.0,0.0,93,0.00,,,0.00,Wunderground v.1.15,2013-04-14 11:50:00,
2013-04-14 07:53:00,37.2,35.4,30.02,East,100,0.0,0.0,93,0.00,,,0.00,Wunderground v.1.15,2013-04-14 11:53:00,
2013-04-14 07:54:00,37.4,35.8,30.02,East,100,0.0,0.0,94,0.00,,,0.00,Wunderground v.1.15,2013-04-14 11:54:00,
2013-04-14 07:56:00,37.5,35.9,30.02,East,101,0.0,0.0,94,0.00,,,0.00,Wunderground v.1.15,2013-04-14 11:56:00,
2013-04-14 07:58:00,37.7,36.1,30.01,East,100,0.0,1.0,94,0.00,,,0.00,Wunderground v.1.15,2013-04-14 11:58:00,
2013-04-14 07:59:00,37.8,36.2,30.01,East,100,0.0,1.0,94,0.00,,,0.00,Wunderground v.1.15,2013-04-14 11:59:00,
2013-04-14 08:02:00,38.2,36.6,30.01,East,100,0.0,0.0,94,0.00,,,0.00,Wunderground v.1.15,2013-04-14 12:02:00,
2013-04-14 08:03:00,38.4,36.8,30.02,East,100,0.0,0.0,94,0.00,,,0.00,Wunderground v.1.15,2013-04-14 12:03:00,
2013-04-14 08:04:00,38.4,36.8,30.02,East,100,0.0,0.0,94,0.00,,,0.00,Wunderground v.1.15,2013-04-14 12:04:00,
2013-04-14 08:07:00,38.7,37.1,30.01,East,101,0.0,0.0,94,0.00,,,0.00,Wunderground v.1.15,2013-04-14 12:07:00,
2013-04-14 08:09:00,38.9,37.3,30.02,East,101,0.0,0.0,94,0.00,,,0.00,Wunderground v.1.15,2013-04-14 12:09:00,
2013-04-14 08:10:00,38.9,37.3,30.02,East,100,0.0,0.0,94,0.00,,,0.00,Wunderground v.1.15,2013-04-14 12:10:00,
2013-04-14 08:12:00,39.1,37.5,30.01,East,100,0.0,0.0,94,0.00,,,0.00,Wunderground v.1.15,2013-04-14 12:12:00,
2013-04-14 08:14:00,39.3,37.7,30.02,East,101,0.0,0.0,94,0.00,,,0.00,Wunderground v.1.15,2013-04-14 12:14:00,
2013-04-14 08:15:00,39.3,37.7,30.02,East,100,1.0,2.0,94,0.00,,,0.00,Wunderground v.1.15,2013-04-14 12:15:00,
2013-04-14 08:18:00,39.6,38.0,30.02,East,100,0.0,2.0,94,0.00,,,0.00,Wunderground v.1.15,2013-04-14 12:18:00,
2013-04-14 08:19:00,39.7,38.1,30.02,East,100,0.0,2.0,94,0.00,,,0.00,Wunderground v.1.15,2013-04-14 12:19:00,
2013-04-14 08:20:00,39.9,38.3,30.02,East,101,0.0,0.0,94,0.00,,,0.00,Wunderground v.1.15,2013-04-14 12:20:00,
2013-04-14 08:23:00,40.3,38.7,30.01,East,100,0.0,0.0,94,0.00,,,0.00,Wunderground v.1.15,2013-04-14 12:23:00,
2013-04-14 08:24:00,40.4,38.8,30.01,East,100,0.0,0.0,94,0.00,,,0.00,Wunderground v.1.15,2013-04-14 12:24:00,
2013-04-14 08:25:00,40.5,38.9,30.01,East,101,0.0,0.0,94,0.00,,,0.00,Wunderground v.1.15,2013-04-14 12:25:00,
2013-04-14 08:28:00,40.8,39.2,30.01,East,100,0.0,0.0,94,0.00,,,0.00,Wunderground v.1.15,2013-04-14 12:28:00,
2013-04-14 08:29:00,40.9,39.3,30.01,East,101,0.0,0.0,94,0.00,,,0.00,Wunderground v.1.15,2013-04-14 12:29:00,
2013-04-14 08:30:00,41.0,39.4,30.01,East,100,0.0,0.0,94,0.00,,,0.00,Wunderground v.1.15,2013-04-14 12:30:00,
2013-04-14 08:32:00,41.1,39.5,30.01,East,100,0.0,0.0,94,0.00,,,0.00,Wunderground v.1.15,2013-04-14 12:32:00,
2013-04-14 08:33:00,41.3,39.7,30.01,East,100,0.0,0.0,94,0.00,,,0.00,Wunderground v.1.15,2013-04-14 12:33:00,
2013-04-14 08:34:00,41.4,39.8,30.01,East,100,0.0,0.0,94,0.00,,,0.00,Wunderground v.1.15,2013-04-14 12:34:00,
2013-04-14 08:35:00,41.5,39.9,30.01,East,101,0.0,0.0,94,0.00,,,0.00,Wunderground v.1.15,2013-04-14 12:35:00,
2013-04-14 08:37:00,41.7,40.1,30.01,East,100,0.0,0.0,94,0.00,,,0.00,Wunderground v.1.15,2013-04-14 12:37:00,
2013-04-14 08:39:00,41.9,40.6,30.01,East,101,2.0,2.0,95,0.00,,,0.00,Wunderground v.1.15,2013-04-14 12:39:00,
2013-04-14 08:40:00,42.1,40.8,30.01,East,101,1.0,1.0,95,0.00,,,0.00,Wunderground v.1.15,2013-04-14 12:40:00,
2013-04-14 08:42:00,42.4,40.8,30.01,East,100,0.0,1.0,94,0.00,,,0.00,Wunderground v.1.15,2013-04-14 12:42:00,
2013-04-14 08:44:00,42.7,41.4,30.01,East,100,0.0,2.0,95,0.00,,,0.00,Wunderground v.1.15,2013-04-14 12:44:00,
2013-04-14 08:45:00,42.8,41.5,30.01,East,100,0.0,2.0,95,0.00,,,0.00,Wunderground v.1.15,2013-04-14 12:45:00,
2013-04-14 08:47:00,43.0,41.4,30.01,East,100,2.0,2.0,94,0.00,,,0.00,Wunderground v.1.15,2013-04-14 12:47:00,
2013-04-14 08:49:00,43.4,42.1,30.01,East,101,2.0,4.0,95,0.00,,,0.00,Wunderground v.1.15,2013-04-14 12:49:00,
2013-04-14 08:50:00,43.7,42.4,30.01,East,101,2.0,3.0,95,0.00,,,0.00,Wunderground v.1.15,2013-04-14 12:50:00,
2013-04-14 08:52:00,44.0,42.7,30.01,ESE,105,1.0,4.0,95,0.00,,,0.00,Wunderground v.1.15,2013-04-14 12:52:00,
2013-04-14 08:53:00,44.1,42.8,30.01,ESE,107,2.0,4.0,95,0.00,,,0.00,Wunderground v.1.15,2013-04-14 12:53:00,
2013-04-14 08:54:00,44.4,43.1,30.01,ESE,121,3.0,4.0,95,0.00,,,0.00,Wunderground v.1.15,2013-04-14 12:54:00,
2013-04-14 08:55:00,44.7,43.4,30.01,ESE,123,2.0,4.0,95,0.00,,,0.00,Wunderground v.1.15,2013-04-14 12:55:00,
2013-04-14 08:57:00,45.0,43.4,30.01,SE,125,3.0,5.0,94,0.00,,,0.00,Wunderground v.1.15,2013-04-14 12:57:00,
2013-04-14 08:58:00,45.0,43.4,30.01,SE,126,2.0,5.0,94,0.00,,,0.00,Wunderground v.1.15,2013-04-14 12:58:00,
2013-04-14 08:59:00,45.3,43.7,30.01,SE,126,2.0,5.0,94,0.00,,,0.00,Wunderground v.1.15,2013-04-14 12:59:00,
2013-04-14 09:02:00,46.0,44.1,30.01,ESE,116,2.0,5.0,93,0.00,,,0.00,Wunderground v.1.15,2013-04-14 13:02:00,
2013-04-14 09:03:00,46.2,44.3,30.01,ESE,118,2.0,5.0,93,0.00,,,0.00,Wunderground v.1.15,2013-04-14 13:03:00,
2013-04-14 09:04:00,46.5,44.3,30.01,ESE,122,5.0,5.0,92,0.00,,,0.00,Wunderground v.1.15,2013-04-14 13:04:00,
2013-04-14 09:07:00,47.3,44.2,30.01,SE,126,3.0,5.0,89,0.00,,,0.00,Wunderground v.1.15,2013-04-14 13:07:00,
2013-04-14 09:08:00,47.4,44.3,30.01,SE,126,1.0,5.0,89,0.00,,,0.00,Wunderground v.1.15,2013-04-14 13:08:00,
2013-04-14 09:09:00,47.9,44.5,30.01,SE,132,4.0,5.0,88,0.00,,,0.00,Wunderground v.1.15,2013-04-14 13:09:00,
2013-04-14 09:13:00,48.9,44.9,30.01,SE,131,3.0,5.0,86,0.00,,,0.00,Wunderground v.1.15,2013-04-14 13:13:00,
2013-04-14 09:15:00,49.3,45.0,30.01,SE,131,4.0,5.0,85,0.00,,,0.00,Wunderground v.1.15,2013-04-14 13:15:00,
2013-04-14 09:18:00,50.2,44.9,30.01,SE,124,6.0,7.0,82,0.00,,,0.00,Wunderground v.1.15,2013-04-14 13:18:00,
2013-04-14 09:19:00,50.4,45.1,30.00,SE,132,9.0,10.0,82,0.00,,,0.00,Wunderground v.1.15,2013-04-14 13:19:00,
2013-04-14 09:20:00,50.8,44.9,30.01,SE,136,5.0,7.0,80,0.00,,,0.00,Wunderground v.1.15,2013-04-14 13:20:00,
2013-04-14 09:23:00,51.5,44.5,30.00,SE,139,3.0,8.0,77,0.00,,,0.00,Wunderground v.1.15,2013-04-14 13:23:00,
2013-04-14 09:24:00,51.8,44.5,30.00,SE,143,7.0,9.0,76,0.00,,,0.00,Wunderground v.1.15,2013-04-14 13:24:00,
2013-04-14 09:25:00,52.0,44.3,30.00,SE,127,8.0,9.0,75,0.00,,,0.00,Wunderground v.1.15,2013-04-14 13:25:00,
2013-04-14 09:28:00,52.5,44.1,30.00,SSE,147,2.0,11.0,73,0.00,,,0.00,Wunderground v.1.15,2013-04-14 13:28:00,
2013-04-14 09:29:00,52.6,43.8,30.00,SE,130,6.0,11.0,72,0.00,,,0.00,Wunderground v.1.15,2013-04-14 13:29:00,
2013-04-14 09:30:00,52.8,44.4,30.00,SE,133,5.0,5.0,73,0.00,,,0.00,Wunderground v.1.15,2013-04-14 13:30:00,
2013-04-14 09:33:00,53.2,44.0,30.00,SE,132,4.0,10.0,71,0.00,,,0.00,Wunderground v.1.15,2013-04-14 13:33:00,
2013-04-14 09:34:00,53.2,44.0,30.00,SE,131,4.0,10.0,71,0.00,,,0.00,Wunderground v.1.15,2013-04-14 13:34:00,
2013-04-14 09:35:00,53.4,44.2,29.99,SE,138,5.0,10.0,71,0.00,,,0.00,Wunderground v.1.15,2013-04-14 13:35:00,
2013-04-14 09:39:00,53.9,44.7,29.99,ESE,119,0.0,10.0,71,0.00,,,0.00,Wunderground v.1.15,2013-04-14 13:39:00,
2013-04-14 09:40:00,54.0,44.8,29.99,ESE,119,2.0,10.0,71,0.00,,,0.00,Wunderground v.1.15,2013-04-14 13:40:00,
2013-04-14 09:44:00,54.5,44.2,29.99,SE,138,1.0,9.0,68,0.00,,,0.00,Wunderground v.1.15,2013-04-14 13:44:00,
2013-04-14 09:45:00,54.6,44.6,29.99,SE,138,2.0,9.0,69,0.00,,,0.00,Wunderground v.1.15,2013-04-14 13:45:00,
2013-04-14 09:47:00,54.8,44.8,29.99,SE,135,0.0,9.0,69,0.00,,,0.00,Wunderground v.1.15,2013-04-14 13:47:00,
2013-04-14 09:49:00,55.0,45.4,29.99,SE,135,0.0,9.0,70,0.00,,,0.00,Wunderground v.1.15,2013-04-14 13:49:00,
2013-04-14 09:50:00,55.1,45.5,29.99,SE,135,3.0,3.0,70,0.00,,,0.00,Wunderground v.1.15,2013-04-14 13:50:00,
2013-04-14 09:52:00,55.2,44.8,29.99,SE,133,2.0,5.0,68,0.00,,,0.00,Wunderground v.1.15,2013-04-14 13:52:00,
2013-04-14 09:54:00,55.3,44.9,29.99,SE,134,3.0,5.0,68,0.00,,,0.00,Wunderground v.1.15,2013-04-14 13:54:00,
2013-04-14 09:55:00,55.4,45.0,29.99,SE,134,0.0,5.0,68,0.00,,,0.00,Wunderground v.1.15,2013-04-14 13:55:00,
2013-04-14 09:58:00,55.5,45.1,29.99,SE,136,4.0,6.0,68,0.00,,,0.00,Wunderground v.1.15,2013-04-14 13:58:00,
2013-04-14 09:59:00,55.7,44.9,29.99,SE,135,0.0,6.0,67,0.00,,,0.00,Wunderground v.1.15,2013-04-14 13:59:00,
2013-04-14 10:02:00,55.9,44.7,29.99,SE,140,7.0,8.0,66,0.00,,,0.00,Wunderground v.1.15,2013-04-14 14:02:00,
2013-04-14 10:03:00,56.0,44.8,29.99,SSE,147,1.0,8.0,66,0.00,,,0.00,Wunderground v.1.15,2013-04-14 14:03:00,
2013-04-14 10:04:00,56.0,45.2,29.99,ESE,121,3.0,8.0,67,0.00,,,0.00,Wunderground v.1.15,2013-04-14 14:04:00,
2013-04-14 10:07:00,56.3,45.1,29.99,SE,134,5.0,8.0,66,0.00,,,0.00,Wunderground v.1.15,2013-04-14 14:07:00,
2013-04-14 10:08:00,56.3,45.1,29.99,SSE,152,2.0,10.0,66,0.00,,,0.00,Wunderground v.1.15,2013-04-14 14:08:00,
2013-04-14 10:09:00,56.4,44.8,29.99,SE,138,6.0,10.0,65,0.00,,,0.00,Wunderground v.1.15,2013-04-14 14:09:00,
2013-04-14 10:10:00,56.4,44.8,29.99,SE,140,6.0,10.0,65,0.00,,,0.00,Wunderground v.1.15,2013-04-14 14:10:00,
2013-04-14 10:12:00,56.5,44.5,29.98,SSE,154,3.0,7.0,64,0.00,,,0.00,Wunderground v.1.15,2013-04-14 14:12:00,
2013-04-14 10:13:00,56.5,44.9,29.98,SE,146,4.0,7.0,65,0.00,,,0.00,Wunderground v.1.15,2013-04-14 14:13:00,
2013-04-14 10:14:00,56.6,45.0,29.98,SSE,149,9.0,9.0,65,0.00,,,0.00,Wunderground v.1.15,2013-04-14 14:14:00,
2013-04-14 10:15:00,56.6,45.0,29.98,SE,146,6.0,11.0,65,0.00,,,0.00,Wunderground v.1.15,2013-04-14 14:15:00,
2013-04-14 10:17:00,56.9,44.8,29.98,SSE,153,1.0,11.0,64,0.00,,,0.00,Wunderground v.1.15,2013-04-14 14:17:00,
2013-04-14 10:18:00,57.0,44.9,29.98,SSE,151,3.0,11.0,64,0.00,,,0.00,Wunderground v.1.15,2013-04-14 14:18:00,
2013-04-14 10:19:00,57.1,45.4,29.98,SSE,157,2.0,11.0,65,0.00,,,0.00,Wunderground v.1.15,2013-04-14 14:19:00,
2013-04-14 10:20:00,57.1,45.0,29.98,SSE,155,5.0,11.0,64,0.00,,,0.00,Wunderground v.1.15,2013-04-14 14:20:00,
2013-04-14 10:23:00,57.5,44.6,29.98,SE,136,4.0,7.0,62,0.00,,,0.00,Wunderground v.1.15,2013-04-14 14:23:00,
2013-04-14 10:24:00,57.6,45.1,29.98,SE,135,6.0,7.0,63,0.00,,,0.00,Wunderground v.1.15,2013-04-14 14:24:00,
2013-04-14 10:25:00,57.7,44.8,29.98,SE,140,7.0,7.0,62,0.00,,,0.00,Wunderground v.1.15,2013-04-14 14:25:00,
2013-04-14 10:28:00,57.9,45.0,29.98,SE,139,5.0,10.0,62,0.00,,,0.00,Wunderground v.1.15,2013-04-14 14:28:00,
2013-04-14 10:29:00,58.0,44.2,29.98,SE,133,3.0,10.0,60,0.00,,,0.00,Wunderground v.1.15,2013-04-14 14:29:00,
2013-04-14 10:30:00,58.0,44.2,29.98,SE,133,3.0,10.0,60,0.00,,,0.00,Wunderground v.1.15,2013-04-14 14:30:00,
2013-04-14 10:33:00,58.3,44.9,29.97,SE,134,1.0,5.0,61,0.00,,,0.00,Wunderground v.1.15,2013-04-14 14:33:00,
2013-04-14 10:34:00,58.4,45.4,29.97,SE,134,1.0,5.0,62,0.00,,,0.00,Wunderground v.1.15,2013-04-14 14:34:00,
2013-04-14 10:35:00,58.4,45.4,29.97,SE,134,3.0,5.0,62,0.00,,,0.00,Wunderground v.1.15,2013-04-14 14:35:00,
2013-04-14 10:38:00,58.7,46.1,29.97,SSE,156,10.0,11.0,63,0.00,,,0.00,Wunderground v.1.15,2013-04-14 14:38:00,
2013-04-14 10:39:00,58.9,45.5,29.97,ESE,113,2.0,11.0,61,0.00,,,0.00,Wunderground v.1.15,2013-04-14 14:39:00,
2013-04-14 10:40:00,59.0,45.6,29.96,SE,131,6.0,6.0,61,0.00,,,0.00,Wunderground v.1.15,2013-04-14 14:40:00,
2013-04-14 10:43:00,59.0,44.7,29.97,SE,137,6.0,11.0,59,0.00,,,0.00,Wunderground v.1.15,2013-04-14 14:43:00,
2013-04-14 10:45:00,59.0,45.1,29.96,SE,130,4.0,11.0,60,0.00,,,0.00,Wunderground v.1.15,2013-04-14 14:45:00,
2013-04-14 10:48:00,59.0,45.6,29.96,SE,138,5.0,11.0,61,0.00,,,0.00,Wunderground v.1.15,2013-04-14 14:48:00,
2013-04-14 10:50:00,59.3,45.0,29.96,SE,141,3.0,5.0,59,0.00,,,0.00,Wunderground v.1.15,2013-04-14 14:50:00,
2013-04-14 10:51:00,59.4,45.5,29.96,SE,142,3.0,10.0,60,0.00,,,0.00,Wunderground v.1.15,2013-04-14 14:51:00,
2013-04-14 10:53:00,59.6,45.7,29.96,SE,124,3.0,10.0,60,0.00,,,0.00,Wunderground v.1.15,2013-04-14 14:53:00,
2013-04-14 10:55:00,59.8,45.9,29.96,SE,124,5.0,11.0,60,0.00,,,0.00,Wunderground v.1.15,2013-04-14 14:55:00,
2013-04-14 10:56:00,59.9,46.0,29.96,ESE,118,5.0,11.0,60,0.00,,,0.00,Wunderground v.1.15,2013-04-14 14:56:00,
2013-04-14 10:58:00,60.1,45.7,29.96,SE,138,5.0,11.0,59,0.00,,,0.00,Wunderground v.1.15,2013-04-14 14:58:00,
2013-04-14 11:00:00,60.4,46.0,29.96,SE,134,4.0,9.0,59,0.00,,,0.00,Wunderground v.1.15,2013-04-14 15:00:00,
2013-04-14 11:02:00,60.5,46.1,29.96,SE,130,2.0,9.0,59,0.00,,,0.00,Wunderground v.1.15,2013-04-14 15:02:00,
2013-04-14 11:03:00,60.7,45.8,29.96,ESE,119,3.0,10.0,58,0.00,,,0.00,Wunderground v.1.15,2013-04-14 15:03:00,
2013-04-14 11:05:00,60.8,46.4,29.96,ESE,105,3.0,10.0,59,0.00,,,0.00,Wunderground v.1.15,2013-04-14 15:05:00,
2013-04-14 11:07:00,61.0,46.6,29.97,ESE,107,0.0,10.0,59,0.00,,,0.00,Wunderground v.1.15,2013-04-14 15:07:00,
2013-04-14 11:09:00,61.1,45.7,29.97,SE,130,6.0,11.0,57,0.00,,,0.00,Wunderground v.1.15,2013-04-14 15:09:00,
2013-04-14 11:10:00,61.2,45.8,29.97,SE,129,6.0,9.0,57,0.00,,,0.00,Wunderground v.1.15,2013-04-14 15:10:00,
2013-04-14 11:12:00,61.3,45.9,29.97,SSE,154,5.0,10.0,57,0.00,,,0.00,Wunderground v.1.15,2013-04-14 15:12:00,
2013-04-14 11:14:00,61.3,45.9,29.97,SSE,151,2.0,10.0,57,0.00,,,0.00,Wunderground v.1.15,2013-04-14 15:14:00,
2013-04-14 11:15:00,61.4,45.6,29.97,SSE,150,2.0,10.0,56,0.00,,,0.00,Wunderground v.1.15,2013-04-14 15:15:00,
2013-04-14 11:17:00,61.6,45.7,29.96,SE,131,0.0,10.0,56,0.00,,,0.00,Wunderground v.1.15,2013-04-14 15:17:00,
2013-04-14 11:19:00,61.7,45.4,29.96,SSE,147,4.0,10.0,55,0.00,,,0.00,Wunderground v.1.15,2013-04-14 15:19:00,
2013-04-14 11:20:00,61.8,45.5,29.96,SE,140,6.0,6.0,55,0.00,,,0.00,Wunderground v.1.15,2013-04-14 15:20:00,
2013-04-14 11:22:00,61.9,46.0,29.96,SSE,157,5.0,10.0,56,0.00,,,0.00,Wunderground v.1.15,2013-04-14 15:22:00,
2013-04-14 11:25:00,62.0,46.6,29.96,SE,145,6.0,10.0,57,0.00,,,0.00,Wunderground v.1.15,2013-04-14 15:25:00,
2013-04-14 11:26:00,62.1,46.2,29.96,SE,135,6.0,10.0,56,0.00,,,0.00,Wunderground v.1.15,2013-04-14 15:26:00,
2013-04-14 11:27:00,62.1,47.1,29.96,SE,134,2.0,10.0,58,0.00,,,0.00,Wunderground v.1.15,2013-04-14 15:27:00,
2013-04-14 11:30:00,62.3,45.9,29.96,SE,146,4.0,5.0,55,0.00,,,0.00,Wunderground v.1.15,2013-04-14 15:30:00,
2013-04-14 11:31:00,62.3,45.9,29.96,SE,142,4.0,6.0,55,0.00,,,0.00,Wunderground v.1.15,2013-04-14 15:31:00,
2013-04-14 11:32:00,62.4,47.0,29.96,SE,142,3.0,6.0,57,0.00,,,0.00,Wunderground v.1.15,2013-04-14 15:32:00,
2013-04-14 11:35:00,62.6,47.1,29.96,SE,134,2.0,6.0,57,0.00,,,0.00,Wunderground v.1.15,2013-04-14 15:35:00,
2013-04-14 11:36:00,62.6,47.6,29.96,SE,134,4.0,6.0,58,0.00,,,0.00,Wunderground v.1.15,2013-04-14 15:36:00,
2013-04-14 11:37:00,62.7,47.7,29.96,SE,140,4.0,6.0,58,0.00,,,0.00,Wunderground v.1.15,2013-04-14 15:37:00,
2013-04-14 11:41:00,62.9,46.0,29.96,SE,138,5.0,6.0,54,0.00,,,0.00,Wunderground v.1.15,2013-04-14 15:41:00,
2013-04-14 11:42:00,62.9,47.0,29.95,SE,135,4.0,6.0,56,0.00,,,0.00,Wunderground v.1.15,2013-04-14 15:42:00,
2013-04-14 11:43:00,63.0,46.6,29.95,SE,135,5.0,6.0,55,0.00,,,0.00,Wunderground v.1.15,2013-04-14 15:43:00,
2013-04-14 11:46:00,63.1,47.1,29.96,SE,135,3.0,6.0,56,0.00,,,0.00,Wunderground v.1.15,2013-04-14 15:46:00,
2013-04-14 11:47:00,63.2,47.2,29.96,SE,135,2.0,6.0,56,0.00,,,0.00,Wunderground v.1.15,2013-04-14 15:47:00,
2013-04-14 11:48:00,63.2,48.2,29.96,SE,136,3.0,6.0,58,0.00,,,0.00,Wunderground v.1.15,2013-04-14 15:48:00,
2013-04-14 11:51:00,63.5,47.0,29.96,SE,143,3.0,3.0,55,0.00,,,0.00,Wunderground v.1.15,2013-04-14 15:51:00,
2013-04-14 11:52:00,63.6,47.1,29.96,SE,143,2.0,3.0,55,0.00,,,0.00,Wunderground v.1.15,2013-04-14 15:52:00,
2013-04-14 11:53:00,63.7,46.7,29.95,SE,143,3.0,4.0,54,0.00,,,0.00,Wunderground v.1.15,2013-04-14 15:53:00,
2013-04-14 11:57:00,64.0,46.5,29.95,SE,144,2.0,5.0,53,0.00,,,0.00,Wunderground v.1.15,2013-04-14 15:57:00,
2013-04-14 11:58:00,64.1,46.6,29.95,SE,144,3.0,7.0,53,0.00,,,0.00,Wunderground v.1.15,2013-04-14 15:58:00,
2013-04-14 12:02:00,64.3,47.3,29.95,SE,142,3.0,6.0,54,0.00,,,0.00,Wunderground v.1.15,2013-04-14 16:02:00,
2013-04-14 12:03:00,64.3,47.3,29.95,SE,142,2.0,6.0,54,0.00,,,0.00,Wunderground v.1.15,2013-04-14 16:03:00,
2013-04-14 12:07:00,64.6,48.1,29.95,SE,132,2.0,6.0,55,0.00,,,0.00,Wunderground v.1.15,2013-04-14 16:07:00,
2013-04-14 12:08:00,64.7,48.2,29.95,SE,132,2.0,6.0,55,0.00,,,0.00,Wunderground v.1.15,2013-04-14 16:08:00,
2013-04-14 12:13:00,64.9,47.4,29.94,SE,130,5.0,6.0,53,0.00,,,0.00,Wunderground v.1.15,2013-04-14 16:13:00,
2013-04-14 12:14:00,64.9,46.8,29.95,SE,129,8.0,8.0,52,0.00,,,0.00,Wunderground v.1.15,2013-04-14 16:14:00,
2013-04-14 12:18:00,64.8,47.3,29.94,SE,125,4.0,8.0,53,0.00,,,0.00,Wunderground v.1.15,2013-04-14 16:18:00,
2013-04-14 12:19:00,64.8,47.3,29.95,SE,125,3.0,8.0,53,0.00,,,0.00,Wunderground v.1.15,2013-04-14 16:19:00,
2013-04-14 12:23:00,65.1,47.0,29.95,SE,124,1.0,6.0,52,0.00,,,0.00,Wunderground v.1.15,2013-04-14 16:23:00,
2013-04-14 12:24:00,65.2,47.6,29.95,ESE,123,0.0,6.0,53,0.00,,,0.00,Wunderground v.1.15,2013-04-14 16:24:00,
2013-04-14 12:28:00,65.6,47.5,29.95,SE,124,3.0,9.0,52,0.00,,,0.00,Wunderground v.1.15,2013-04-14 16:28:00,
2013-04-14 12:29:00,65.8,49.2,29.95,SE,124,4.0,9.0,55,0.00,,,0.00,Wunderground v.1.15,2013-04-14 16:29:00,
2013-04-14 12:33:00,66.3,48.7,29.94,SE,129,5.0,5.0,53,0.00,,,0.00,Wunderground v.1.15,2013-04-14 16:33:00,
2013-04-14 12:34:00,66.4,47.2,29.94,SE,136,5.0,6.0,50,0.00,,,0.00,Wunderground v.1.15,2013-04-14 16:34:00,
2013-04-14 12:38:00,67.1,48.4,29.94,SSE,157,5.0,10.0,51,0.00,,,0.00,Wunderground v.1.15,2013-04-14 16:38:00,
2013-04-14 12:39:00,67.2,46.8,29.94,SSE,155,7.0,10.0,48,0.00,,,0.00,Wunderground v.1.15,2013-04-14 16:39:00,
2013-04-14 12:44:00,67.7,48.4,29.94,SSE,161,5.0,10.0,50,0.00,,,0.00,Wunderground v.1.15,2013-04-14 16:44:00,
2013-04-14 12:49:00,67.7,48.9,29.94,ESE,118,4.0,10.0,51,0.00,,,0.00,Wunderground v.1.15,2013-04-14 16:49:00,
2013-04-14 12:54:00,67.9,49.1,29.93,SE,124,7.0,11.0,51,0.00,,,0.00,Wunderground v.1.15,2013-04-14 16:54:00,
2013-04-14 12:55:00,68.0,48.1,29.93,ESE,109,10.0,12.0,49,0.00,,,0.00,Wunderground v.1.15,2013-04-14 16:55:00,
2013-04-14 12:59:00,67.9,48.0,29.93,SE,140,3.0,12.0,49,0.00,,,0.00,Wunderground v.1.15,2013-04-14 16:59:00,
2013-04-14 13:00:00,67.8,48.5,29.93,SE,144,6.0,6.0,50,0.00,,,0.00,Wunderground v.1.15,2013-04-14 17:00:00,
2013-04-14 13:04:00,68.0,48.7,29.93,SSE,150,4.0,9.0,50,0.00,,,0.00,Wunderground v.1.15,2013-04-14 17:04:00,
2013-04-14 13:05:00,68.0,48.7,29.93,SSE,154,11.0,11.0,50,0.00,,,0.00,Wunderground v.1.15,2013-04-14 17:05:00,
2013-04-14 13:09:00,68.2,47.2,29.93,SSE,167,4.0,12.0,47,0.00,,,0.00,Wunderground v.1.15,2013-04-14 17:09:00,
2013-04-14 13:10:00,68.2,48.3,29.93,SSE,157,3.0,12.0,49,0.00,,,0.00,Wunderground v.1.15,2013-04-14 17:10:00,
2013-04-14 13:14:00,68.5,48.6,29.93,ESE,117,5.0,6.0,49,0.00,,,0.00,Wunderground v.1.15,2013-04-14 17:14:00,
2013-04-14 13:15:00,68.6,48.7,29.93,ESE,116,3.0,6.0,49,0.00,,,0.00,Wunderground v.1.15,2013-04-14 17:15:00,
2013-04-14 13:19:00,69.0,48.5,29.93,SSE,165,3.0,6.0,48,0.00,,,0.00,Wunderground v.1.15,2013-04-14 17:19:00,
2013-04-14 13:20:00,69.0,47.9,29.93,SSE,165,4.0,4.0,47,0.00,,,0.00,Wunderground v.1.15,2013-04-14 17:20:00,
2013-04-14 13:24:00,69.4,48.3,29.93,SE,131,5.0,7.0,47,0.00,,,0.00,Wunderground v.1.15,2013-04-14 17:24:00,
2013-04-14 13:25:00,69.4,48.3,29.93,SSE,158,7.0,10.0,47,0.00,,,0.00,Wunderground v.1.15,2013-04-14 17:25:00,
2013-04-14 13:29:00,69.6,49.6,29.93,SE,145,1.0,10.0,49,0.00,,,0.00,Wunderground v.1.15,2013-04-14 17:29:00,
2013-04-14 13:30:00,69.6,48.5,29.93,SE,144,4.0,4.0,47,0.00,,,0.00,Wunderground v.1.15,2013-04-14 17:30:00,
2013-04-14 13:34:00,69.9,48.2,29.93,SE,142,5.0,10.0,46,0.00,,,0.00,Wunderground v.1.15,2013-04-14 17:34:00,
2013-04-14 13:35:00,69.9,48.2,29.93,SSE,149,3.0,10.0,46,0.00,,,0.00,Wunderground v.1.15,2013-04-14 17:35:00,
2013-04-14 13:36:00,70.0,48.8,29.93,SSE,150,0.0,10.0,47,0.00,,,0.00,Wunderground v.1.15,2013-04-14 17:36:00,
2013-04-14 13:40:00,70.2,47.9,29.93,SSE,149,6.0,10.0,45,0.00,,,0.00,Wunderground v.1.15,2013-04-14 17:40:00,
2013-04-14 13:41:00,70.2,47.9,29.93,SSE,149,5.0,5.0,45,0.00,,,0.00,Wunderground v.1.15,2013-04-14 17:41:00,
2013-04-14 13:45:00,70.2,49.6,29.93,SE,136,0.0,9.0,48,0.00,,,0.00,Wunderground v.1.15,2013-04-14 17:45:00,
2013-04-14 13:46:00,70.2,48.4,29.93,South,169,6.0,9.0,46,0.00,,,0.00,Wunderground v.1.15,2013-04-14 17:46:00,
2013-04-14 13:50:00,70.2,49.0,29.93,SSE,153,4.0,5.0,47,0.00,,,0.00,Wunderground v.1.15,2013-04-14 17:50:00,
2013-04-14 13:51:00,70.2,47.9,29.93,SSE,156,8.0,8.0,45,0.00,,,0.00,Wunderground v.1.15,2013-04-14 17:51:00,
2013-04-14 13:52:00,70.3,47.3,29.93,South,176,0.0,8.0,44,0.00,,,0.00,Wunderground v.1.15,2013-04-14 17:52:00,
2013-04-14 13:55:00,70.5,48.7,29.92,SSW,195,7.0,8.0,46,0.00,,,0.00,Wunderground v.1.15,2013-04-14 17:55:00,
2013-04-14 13:56:00,70.6,48.8,29.92,SSW,200,3.0,8.0,46,0.00,,,0.00,Wunderground v.1.15,2013-04-14 17:56:00,
2013-04-14 13:58:00,70.8,48.4,29.92,South,178,2.0,8.0,45,0.00,,,0.00,Wunderground v.1.15,2013-04-14 17:58:00,
2013-04-14 14:00:00,71.0,49.7,29.92,South,178,0.0,4.0,47,0.00,,,0.00,Wunderground v.1.15,2013-04-14 18:00:00,
2013-04-14 14:01:00,71.1,49.8,29.92,South,178,4.0,4.0,47,0.00,,,0.00,Wunderground v.1.15,2013-04-14 18:01:00,
2013-04-14 14:03:00,71.3,48.9,29.92,SE,139,5.0,8.0,45,0.00,,,0.00,Wunderground v.1.15,2013-04-14 18:03:00,
2013-04-14 14:06:00,71.4,48.9,29.92,SE,134,3.0,9.0,45,0.00,,,0.00,Wunderground v.1.15,2013-04-14 18:06:00,
2013-04-14 14:08:00,71.6,48.5,29.92,SE,143,5.0,9.0,44,0.00,,,0.00,Wunderground v.1.15,2013-04-14 18:08:00,
2013-04-14 14:11:00,71.7,48.6,29.92,SSE,156,6.0,7.0,44,0.00,,,0.00,Wunderground v.1.15,2013-04-14 18:11:00,
2013-04-14 14:12:00,71.8,49.3,29.92,SSE,161,4.0,7.0,45,0.00,,,0.00,Wunderground v.1.15,2013-04-14 18:12:00,
2013-04-14 14:13:00,71.9,48.2,29.92,SSE,168,3.0,7.0,43,0.00,,,0.00,Wunderground v.1.15,2013-04-14 18:13:00,
2013-04-14 14:17:00,72.2,49.1,29.91,South,185,6.0,10.0,44,0.00,,,0.00,Wunderground v.1.15,2013-04-14 18:17:00,
2013-04-14 14:19:00,72.3,47.9,29.91,SSW,205,2.0,10.0,42,0.00,,,0.00,Wunderground v.1.15,2013-04-14 18:19:00,
2013-04-14 14:22:00,72.6,48.2,29.91,South,180,5.0,11.0,42,0.00,,,0.00,Wunderground v.1.15,2013-04-14 18:22:00,
2013-04-14 14:23:00,72.7,48.3,29.91,SSW,210,11.0,11.0,42,0.00,,,0.00,Wunderground v.1.15,2013-04-14 18:23:00,
2013-04-14 14:24:00,72.8,49.0,29.91,SW,224,6.0,11.0,43,0.00,,,0.00,Wunderground v.1.15,2013-04-14 18:24:00,
2013-04-14 14:27:00,72.9,49.7,29.91,SSE,165,5.0,11.0,44,0.00,,,0.00,Wunderground v.1.15,2013-04-14 18:27:00,
2013-04-14 14:28:00,73.0,48.5,29.91,SSE,165,8.0,11.0,42,0.00,,,0.00,Wunderground v.1.15,2013-04-14 18:28:00,
2013-04-14 14:29:00,73.0,47.2,29.91,SSE,151,4.0,11.0,40,0.00,,,0.00,Wunderground v.1.15,2013-04-14 18:29:00,
2013-04-14 14:32:00,73.0,47.9,29.90,SSW,212,7.0,11.0,41,0.00,,,0.00,Wunderground v.1.15,2013-04-14 18:32:00,
2013-04-14 14:33:00,73.0,48.5,29.90,SSW,205,7.0,11.0,42,0.00,,,0.00,Wunderground v.1.15,2013-04-14 18:33:00,
2013-04-14 14:34:00,73.0,47.2,29.90,SSW,205,6.0,11.0,40,0.00,,,0.00,Wunderground v.1.15,2013-04-14 18:34:00,
2013-04-14 14:37:00,73.2,48.7,29.90,SSW,209,1.0,11.0,42,0.00,,,0.00,Wunderground v.1.15,2013-04-14 18:37:00,
2013-04-14 14:38:00,73.2,48.7,29.90,SSW,209,1.0,11.0,42,0.00,,,0.00,Wunderground v.1.15,2013-04-14 18:38:00,
2013-04-14 14:39:00,73.3,49.4,29.90,SSW,209,3.0,11.0,43,0.00,,,0.00,Wunderground v.1.15,2013-04-14 18:39:00,
2013-04-14 14:42:00,73.6,49.1,29.90,South,171,7.0,10.0,42,0.00,,,0.00,Wunderground v.1.15,2013-04-14 18:42:00,
2013-04-14 14:43:00,73.6,47.8,29.90,South,174,7.0,10.0,40,0.00,,,0.00,Wunderground v.1.15,2013-04-14 18:43:00,
2013-04-14 14:44:00,73.7,47.9,29.90,South,178,3.0,10.0,40,0.00,,,0.00,Wunderground v.1.15,2013-04-14 18:44:00,
2013-04-14 14:48:00,73.9,48.1,29.90,SSW,195,0.0,10.0,40,0.00,,,0.00,Wunderground v.1.15,2013-04-14 18:48:00,
2013-04-14 14:50:00,73.9,48.7,29.89,SSW,195,7.0,10.0,41,0.00,,,0.00,Wunderground v.1.15,2013-04-14 18:50:00,
2013-04-14 14:53:00,74.1,47.6,29.89,SSW,195,5.0,7.0,39,0.00,,,0.00,Wunderground v.1.15,2013-04-14 18:53:00,
2013-04-14 14:55:00,74.3,47.7,29.89,SSW,200,6.0,10.0,39,0.00,,,0.00,Wunderground v.1.15,2013-04-14 18:55:00,
2013-04-14 14:56:00,74.3,47.7,29.89,SSW,195,5.0,10.0,39,0.00,,,0.00,Wunderground v.1.15,2013-04-14 18:56:00,
2013-04-14 14:58:00,74.4,48.5,29.89,SSE,167,2.0,11.0,40,0.00,,,0.00,Wunderground v.1.15,2013-04-14 18:58:00,
2013-04-14 15:00:00,74.5,47.9,29.89,South,182,6.0,10.0,39,0.00,,,0.00,Wunderground v.1.15,2013-04-14 19:00:00,
2013-04-14 15:01:00,74.5,47.9,29.89,South,188,5.0,10.0,39,0.00,,,0.00,Wunderground v.1.15,2013-04-14 19:01:00,
2013-04-14 15:03:00,74.7,46.7,29.89,South,184,4.0,10.0,37,0.00,,,0.00,Wunderground v.1.15,2013-04-14 19:03:00,
2013-04-14 15:05:00,74.9,46.1,29.89,SW,218,2.0,12.0,36,0.00,,,0.00,Wunderground v.1.15,2013-04-14 19:05:00,
2013-04-14 15:07:00,75.0,47.0,29.89,SSW,213,4.0,12.0,37,0.00,,,0.00,Wunderground v.1.15,2013-04-14 19:07:00,
2013-04-14 15:08:00,75.1,47.0,29.89,SSW,200,10.0,12.0,37,0.00,,,0.00,Wunderground v.1.15,2013-04-14 19:08:00,
2013-04-14 15:10:00,75.0,47.0,29.89,South,188,5.0,6.0,37,0.00,,,0.00,Wunderground v.1.15,2013-04-14 19:10:00,
2013-04-14 15:12:00,75.0,47.0,29.89,South,179,5.0,6.0,37,0.00,,,0.00,Wunderground v.1.15,2013-04-14 19:12:00,
2013-04-14 15:13:00,74.9,46.1,29.88,SSE,157,0.0,12.0,36,0.00,,,0.00,Wunderground v.1.15,2013-04-14 19:13:00,
2013-04-14 15:14:00,74.9,46.1,29.88,SSE,158,0.0,12.0,36,0.00,,,0.00,Wunderground v.1.15,2013-04-14 19:14:00,
2013-04-14 15:15:00,74.9,47.6,29.88,SSW,213,1.0,12.0,38,0.00,,,0.00,Wunderground v.1.15,2013-04-14 19:15:00,
2013-04-14 15:17:00,74.9,46.9,29.88,SSW,209,0.0,12.0,37,0.00,,,0.00,Wunderground v.1.15,2013-04-14 19:17:00,
2013-04-14 15:18:00,75.0,47.7,29.88,South,180,7.0,12.0,38,0.00,,,0.00,Wunderground v.1.15,2013-04-14 19:18:00,
2013-04-14 15:19:00,75.0,47.7,29.88,South,188,5.0,12.0,38,0.00,,,0.00,Wunderground v.1.15,2013-04-14 19:19:00,
2013-04-14 15:20:00,75.1,46.3,29.88,South,178,6.0,11.0,36,0.00,,,0.00,Wunderground v.1.15,2013-04-14 19:20:00,
2013-04-14 15:22:00,75.1,47.8,29.88,SSW,195,3.0,11.0,38,0.00,,,0.00,Wunderground v.1.15,2013-04-14 19:22:00,
2013-04-14 15:23:00,75.2,46.4,29.88,South,181,7.0,13.0,36,0.00,,,0.00,Wunderground v.1.15,2013-04-14 19:23:00,
2013-04-14 15:24:00,75.2,46.4,29.88,South,190,7.0,13.0,36,0.00,,,0.00,Wunderground v.1.15,2013-04-14 19:24:00,
2013-04-14 15:25:00,75.3,46.5,29.88,SSW,195,9.0,13.0,36,0.00,,,0.00,Wunderground v.1.15,2013-04-14 19:25:00,
2013-04-14 15:27:00,75.4,45.8,29.88,SSW,195,0.0,13.0,35,0.00,,,0.00,Wunderground v.1.15,2013-04-14 19:27:00,
2013-04-14 15:29:00,75.5,45.9,29.88,South,169,7.0,13.0,35,0.00,,,0.00,Wunderground v.1.15,2013-04-14 19:29:00,
2013-04-14 15:30:00,75.4,45.8,29.88,South,183,4.0,12.0,35,0.00,,,0.00,Wunderground v.1.15,2013-04-14 19:30:00,
2013-04-14 15:32:00,75.4,48.0,29.87,SW,221,5.0,12.0,38,0.00,,,0.00,Wunderground v.1.15,2013-04-14 19:32:00,
2013-04-14 15:34:00,75.4,46.6,29.88,South,182,10.0,13.0,36,0.00,,,0.00,Wunderground v.1.15,2013-04-14 19:34:00,
2013-04-14 15:36:00,75.3,46.5,29.88,SSE,163,8.0,15.0,36,0.00,,,0.00,Wunderground v.1.15,2013-04-14 19:36:00,
2013-04-14 15:37:00,75.2,47.1,29.88,South,170,6.0,15.0,37,0.00,,,0.00,Wunderground v.1.15,2013-04-14 19:37:00,
2013-04-14 15:39:00,75.1,47.0,29.87,SSW,205,2.0,15.0,37,0.00,,,0.00,Wunderground v.1.15,2013-04-14 19:39:00,
2013-04-14 15:40:00,75.1,47.0,29.87,SE,143,7.0,15.0,37,0.00,,,0.00,Wunderground v.1.15,2013-04-14 19:40:00,
2013-04-14 15:42:00,75.2,46.4,29.87,SSE,150,10.0,10.0,36,0.00,,,0.00,Wunderground v.1.15,2013-04-14 19:42:00,
2013-04-14 15:44:00,75.2,47.1,29.87,South,172,9.0,11.0,37,0.00,,,0.00,Wunderground v.1.15,2013-04-14 19:44:00,
2013-04-14 15:45:00,75.1,47.0,29.87,South,182,2.0,11.0,37,0.00,,,0.00,Wunderground v.1.15,2013-04-14 19:45:00,
2013-04-14 15:47:00,75.1,46.3,29.87,South,182,10.0,14.0,36,0.00,,,0.00,Wunderground v.1.15,2013-04-14 19:47:00,
2013-04-14 15:48:00,75.1,45.6,29.87,SE,131,9.0,14.0,35,0.00,,,0.00,Wunderground v.1.15,2013-04-14 19:48:00,
2013-04-14 15:49:00,75.0,46.2,29.87,SSW,200,7.0,15.0,36,0.00,,,0.00,Wunderground v.1.15,2013-04-14 19:49:00,
2013-04-14 15:50:00,75.0,47.0,29.86,SSW,195,5.0,11.0,37,0.00,,,0.00,Wunderground v.1.15,2013-04-14 19:50:00,
2013-04-14 15:52:00,75.1,47.8,29.86,SSW,195,2.0,12.0,38,0.00,,,0.00,Wunderground v.1.15,2013-04-14 19:52:00,
2013-04-14 15:53:00,75.1,47.8,29.86,South,190,4.0,12.0,38,0.00,,,0.00,Wunderground v.1.15,2013-04-14 19:53:00,
2013-04-14 15:54:00,75.2,47.1,29.86,South,183,0.0,12.0,37,0.00,,,0.00,Wunderground v.1.15,2013-04-14 19:54:00,
2013-04-14 15:55:00,75.3,48.6,29.86,South,181,9.0,12.0,39,0.00,,,0.00,Wunderground v.1.15,2013-04-14 19:55:00,
2013-04-14 15:58:00,75.5,47.4,29.86,SSW,200,6.0,13.0,37,0.00,,,0.00,Wunderground v.1.15,2013-04-14 19:58:00,
2013-04-14 15:59:00,75.6,48.2,29.86,SSW,195,5.0,13.0,38,0.00,,,0.00,Wunderground v.1.15,2013-04-14 19:59:00,
2013-04-14 16:00:00,75.7,48.3,29.86,SW,231,2.0,6.0,38,0.00,,,0.00,Wunderground v.1.15,2013-04-14 20:00:00,
2013-04-14 16:03:00,75.9,49.2,29.86,South,179,6.0,7.0,39,0.00,,,0.00,Wunderground v.1.15,2013-04-14 20:03:00,
2013-04-14 16:04:00,76.1,48.6,29.86,South,188,10.0,11.0,38,0.00,,,0.00,Wunderground v.1.15,2013-04-14 20:04:00,
2013-04-14 16:05:00,76.2,48.0,29.86,South,170,4.0,11.0,37,0.00,,,0.00,Wunderground v.1.15,2013-04-14 20:05:00,
2013-04-14 16:08:00,76.2,48.0,29.86,SSE,149,11.0,21.0,37,0.00,,,0.00,Wunderground v.1.15,2013-04-14 20:08:00,
2013-04-14 16:10:00,75.9,47.8,29.86,SE,142,11.0,21.0,37,0.00,,,0.00,Wunderground v.1.15,2013-04-14 20:10:00,
2013-04-14 16:13:00,75.4,46.6,29.86,South,190,9.0,20.0,36,0.00,,,0.00,Wunderground v.1.15,2013-04-14 20:13:00,
2013-04-14 16:15:00,75.2,47.1,29.86,SSW,195,3.0,20.0,37,0.00,,,0.00,Wunderground v.1.15,2013-04-14 20:15:00,
2013-04-14 16:18:00,75.1,48.4,29.86,SSE,166,11.0,20.0,39,0.00,,,0.00,Wunderground v.1.15,2013-04-14 20:18:00,
2013-04-14 16:19:00,75.1,49.1,29.86,SW,231,5.0,20.0,40,0.00,,,0.00,Wunderground v.1.15,2013-04-14 20:19:00,
2013-04-14 16:20:00,75.0,47.0,29.86,South,181,13.0,13.0,37,0.00,,,0.00,Wunderground v.1.15,2013-04-14 20:20:00,
2013-04-14 16:21:00,75.0,47.7,29.86,SW,224,9.0,13.0,38,0.00,,,0.00,Wunderground v.1.15,2013-04-14 20:21:00,
2013-04-14 16:23:00,75.1,48.4,29.86,SSE,156,15.0,16.0,39,0.00,,,0.00,Wunderground v.1.15,2013-04-14 20:23:00,
2013-04-14 16:24:00,75.1,48.4,29.85,South,171,5.0,16.0,39,0.00,,,0.00,Wunderground v.1.15,2013-04-14 20:24:00,
2013-04-14 16:25:00,75.1,48.4,29.85,South,174,11.0,16.0,39,0.00,,,0.00,Wunderground v.1.15,2013-04-14 20:25:00,
2013-04-14 16:26:00,75.1,48.4,29.85,South,178,10.0,17.0,39,0.00,,,0.00,Wunderground v.1.15,2013-04-14 20:26:00,
2013-04-14 16:28:00,75.0,47.7,29.85,SSW,200,7.0,17.0,38,0.00,,,0.00,Wunderground v.1.15,2013-04-14 20:28:00,
2013-04-14 16:29:00,74.9,48.3,29.85,South,174,11.0,17.0,39,0.00,,,0.00,Wunderground v.1.15,2013-04-14 20:29:00,
2013-04-14 16:30:00,74.9,47.6,29.85,South,174,4.0,9.0,38,0.00,,,0.00,Wunderground v.1.15,2013-04-14 20:30:00,
2013-04-14 16:31:00,74.9,49.6,29.85,WSW,237,9.0,12.0,41,0.00,,,0.00,Wunderground v.1.15,2013-04-14 20:31:00,
2013-04-14 16:33:00,75.0,48.4,29.85,SSW,205,9.0,12.0,39,0.00,,,0.00,Wunderground v.1.15,2013-04-14 20:33:00,
2013-04-14 16:34:00,74.9,47.6,29.85,South,173,4.0,12.0,38,0.00,,,0.00,Wunderground v.1.15,2013-04-14 20:34:00,
2013-04-14 16:35:00,75.0,48.4,29.85,SSW,195,3.0,12.0,39,0.00,,,0.00,Wunderground v.1.15,2013-04-14 20:35:00,
2013-04-14 16:37:00,75.0,47.7,29.85,SSW,195,5.0,15.0,38,0.00,,,0.00,Wunderground v.1.15,2013-04-14 20:37:00,
2013-04-14 16:38:00,75.0,49.0,29.85,SE,143,11.0,15.0,40,0.00,,,0.00,Wunderground v.1.15,2013-04-14 20:38:00,
2013-04-14 16:39:00,74.9,48.3,29.85,South,184,10.0,15.0,39,0.00,,,0.00,Wunderground v.1.15,2013-04-14 20:39:00,
2013-04-14 16:40:00,74.9,47.6,29.85,South,172,6.0,7.0,38,0.00,,,0.00,Wunderground v.1.15,2013-04-14 20:40:00,
2013-04-14 16:42:00,74.7,48.1,29.85,South,178,7.0,9.0,39,0.00,,,0.00,Wunderground v.1.15,2013-04-14 20:42:00,
2013-04-14 16:43:00,74.7,48.8,29.85,SSE,156,11.0,12.0,40,0.00,,,0.00,Wunderground v.1.15,2013-04-14 20:43:00,
2013-04-14 16:44:00,74.6,48.0,29.85,SSW,200,10.0,12.0,39,0.00,,,0.00,Wunderground v.1.15,2013-04-14 20:44:00,
2013-04-14 16:45:00,74.6,48.0,29.85,South,190,7.0,12.0,39,0.00,,,0.00,Wunderground v.1.15,2013-04-14 20:45:00,
2013-04-14 16:47:00,74.5,48.6,29.85,SSW,195,6.0,14.0,40,0.00,,,0.00,Wunderground v.1.15,2013-04-14 20:47:00,
2013-04-14 16:49:00,74.4,49.8,29.85,SSW,195,10.0,14.0,42,0.00,,,0.00,Wunderground v.1.15,2013-04-14 20:49:00,
2013-04-14 16:50:00,74.4,48.5,29.85,South,190,9.0,14.0,40,0.00,,,0.00,Wunderground v.1.15,2013-04-14 20:50:00,
2013-04-14 16:51:00,74.4,48.5,29.85,SSW,205,8.0,14.0,40,0.00,,,0.00,Wunderground v.1.15,2013-04-14 20:51:00,
2013-04-14 16:52:00,74.3,47.7,29.85,SW,218,4.0,14.0,39,0.00,,,0.00,Wunderground v.1.15,2013-04-14 20:52:00,
2013-04-14 16:54:00,74.3,48.4,29.85,South,182,2.0,14.0,40,0.00,,,0.00,Wunderground v.1.15,2013-04-14 20:54:00,
2013-04-14 16:55:00,74.4,49.2,29.85,South,173,9.0,14.0,41,0.00,,,0.00,Wunderground v.1.15,2013-04-14 20:55:00,
2013-04-14 16:57:00,74.3,49.1,29.85,SSE,155,5.0,16.0,41,0.00,,,0.00,Wunderground v.1.15,2013-04-14 20:57:00,
2013-04-14 16:58:00,74.3,48.4,29.85,South,173,6.0,16.0,40,0.00,,,0.00,Wunderground v.1.15,2013-04-14 20:58:00,
2013-04-14 16:59:00,74.3,49.7,29.85,SSW,205,4.0,16.0,42,0.00,,,0.00,Wunderground v.1.15,2013-04-14 20:59:00,
2013-04-14 17:00:00,74.4,49.2,29.85,South,178,4.0,7.0,41,0.00,,,0.00,Wunderground v.1.15,2013-04-14 21:00:00,
2013-04-14 17:02:00,74.5,49.2,29.85,SSE,157,12.0,15.0,41,0.00,,,0.00,Wunderground v.1.15,2013-04-14 21:02:00,
2013-04-14 17:03:00,74.5,48.6,29.85,South,188,13.0,15.0,40,0.00,,,0.00,Wunderground v.1.15,2013-04-14 21:03:00,
2013-04-14 17:04:00,74.6,50.6,29.85,SSE,158,9.0,15.0,43,0.00,,,0.00,Wunderground v.1.15,2013-04-14 21:04:00,
2013-04-14 17:05:00,74.6,49.3,29.85,South,174,4.0,15.0,41,0.00,,,0.00,Wunderground v.1.15,2013-04-14 21:05:00,
2013-04-14 17:07:00,74.7,50.1,29.85,SSE,158,1.0,15.0,42,0.00,,,0.00,Wunderground v.1.15,2013-04-14 21:07:00,
2013-04-14 17:08:00,74.7,48.8,29.85,SSW,205,5.0,15.0,40,0.00,,,0.00,Wunderground v.1.15,2013-04-14 21:08:00,
2013-04-14 17:09:00,74.7,49.4,29.85,South,175,6.0,15.0,41,0.00,,,0.00,Wunderground v.1.15,2013-04-14 21:09:00,
2013-04-14 17:11:00,74.7,48.8,29.85,South,178,6.0,10.0,40,0.00,,,0.00,Wunderground v.1.15,2013-04-14 21:11:00,
2013-04-14 17:12:00,74.7,49.4,29.84,South,182,5.0,10.0,41,0.00,,,0.00,Wunderground v.1.15,2013-04-14 21:12:00,
2013-04-14 17:13:00,74.7,49.4,29.84,South,183,10.0,13.0,41,0.00,,,0.00,Wunderground v.1.15,2013-04-14 21:13:00,
2013-04-14 17:14:00,74.6,48.0,29.84,SSW,195,12.0,14.0,39,0.00,,,0.00,Wunderground v.1.15,2013-04-14 21:14:00,
2013-04-14 17:17:00,74.5,48.6,29.84,South,186,6.0,16.0,40,0.00,,,0.00,Wunderground v.1.15,2013-04-14 21:17:00,
2013-04-14 17:18:00,74.5,48.6,29.84,South,176,6.0,16.0,40,0.00,,,0.00,Wunderground v.1.15,2013-04-14 21:18:00,
2013-04-14 17:19:00,74.5,48.6,29.84,South,183,5.0,16.0,40,0.00,,,0.00,Wunderground v.1.15,2013-04-14 21:19:00,
2013-04-14 17:22:00,74.5,49.2,29.83,South,179,11.0,11.0,41,0.00,,,0.00,Wunderground v.1.15,2013-04-14 21:22:00,
2013-04-14 17:24:00,74.5,48.6,29.83,SSE,162,10.0,13.0,40,0.00,,,0.00,Wunderground v.1.15,2013-04-14 21:24:00,
2013-04-14 17:25:00,74.5,49.2,29.83,SSE,161,2.0,13.0,41,0.00,,,0.00,Wunderground v.1.15,2013-04-14 21:25:00,
2013-04-14 17:27:00,74.5,48.6,29.83,South,174,5.0,13.0,40,0.00,,,0.00,Wunderground v.1.15,2013-04-14 21:27:00,
2013-04-14 17:29:00,74.5,48.6,29.83,SE,130,3.0,14.0,40,0.00,,,0.00,Wunderground v.1.15,2013-04-14 21:29:00,
2013-04-14 17:30:00,74.4,49.2,29.83,SSW,195,5.0,10.0,41,0.00,,,0.00,Wunderground v.1.15,2013-04-14 21:30:00,
2013-04-14 17:33:00,74.4,49.2,29.83,SSE,165,5.0,10.0,41,0.00,,,0.00,Wunderground v.1.15,2013-04-14 21:33:00,
2013-04-14 17:34:00,74.3,49.1,29.83,SE,135,0.0,10.0,41,0.00,,,0.00,Wunderground v.1.15,2013-04-14 21:34:00,
2013-04-14 17:35:00,74.3,49.7,29.83,SW,228,10.0,10.0,42,0.00,,,0.00,Wunderground v.1.15,2013-04-14 21:35:00,
2013-04-14 17:38:00,74.1,48.2,29.83,SW,224,5.0,13.0,40,0.00,,,0.00,Wunderground v.1.15,2013-04-14 21:38:00,
2013-04-14 17:39:00,74.0,48.8,29.83,SSW,211,1.0,13.0,41,0.00,,,0.00,Wunderground v.1.15,2013-04-14 21:39:00,
2013-04-14 17:40:00,74.0,48.8,29.83,SSE,167,6.0,6.0,41,0.00,,,0.00,Wunderground v.1.15,2013-04-14 21:40:00,
2013-04-14 17:43:00,73.9,48.7,29.84,South,180,4.0,10.0,41,0.00,,,0.00,Wunderground v.1.15,2013-04-14 21:43:00,
2013-04-14 17:44:00,73.8,49.3,29.83,SSW,200,0.0,10.0,42,0.00,,,0.00,Wunderground v.1.15,2013-04-14 21:44:00,
2013-04-14 17:45:00,73.8,49.9,29.83,SSW,200,0.0,10.0,43,0.00,,,0.00,Wunderground v.1.15,2013-04-14 21:45:00,
2013-04-14 17:48:00,73.8,49.3,29.84,South,171,3.0,11.0,42,0.00,,,0.00,Wunderground v.1.15,2013-04-14 21:48:00,
2013-04-14 17:49:00,73.8,49.3,29.84,South,173,11.0,16.0,42,0.00,,,0.00,Wunderground v.1.15,2013-04-14 21:49:00,
2013-04-14 17:50:00,73.7,48.5,29.83,SSE,166,5.0,10.0,41,0.00,,,0.00,Wunderground v.1.15,2013-04-14 21:50:00,
2013-04-14 17:53:00,73.7,48.5,29.84,SW,218,2.0,10.0,41,0.00,,,0.00,Wunderground v.1.15,2013-04-14 21:53:00,
2013-04-14 17:55:00,73.7,48.5,29.84,SSW,195,11.0,13.0,41,0.00,,,0.00,Wunderground v.1.15,2013-04-14 21:55:00,
2013-04-14 17:56:00,73.6,48.4,29.84,SW,215,13.0,15.0,41,0.00,,,0.00,Wunderground v.1.15,2013-04-14 21:56:00,
2013-04-14 17:58:00,73.5,48.4,29.84,SW,215,5.0,15.0,41,0.00,,,0.00,Wunderground v.1.15,2013-04-14 21:58:00,
2013-04-14 18:00:00,73.5,48.4,29.84,SW,230,1.0,7.0,41,0.00,,,0.00,Wunderground v.1.15,2013-04-14 22:00:00,
2013-04-14 18:02:00,73.5,49.0,29.84,SSW,200,4.0,11.0,42,0.00,,,0.00,Wunderground v.1.15,2013-04-14 22:02:00,
2013-04-14 18:03:00,73.4,49.5,29.84,SSW,195,1.0,11.0,43,0.00,,,0.00,Wunderground v.1.15,2013-04-14 22:03:00,
2013-04-14 18:05:00,73.4,48.9,29.84,SW,236,1.0,11.0,42,0.00,,,0.00,Wunderground v.1.15,2013-04-14 22:05:00,
2013-04-14 18:08:00,73.3,48.8,29.84,South,181,13.0,16.0,42,0.00,,,0.00,Wunderground v.1.15,2013-04-14 22:08:00,
2013-04-14 18:09:00,73.3,48.8,29.84,SSW,195,9.0,16.0,42,0.00,,,0.00,Wunderground v.1.15,2013-04-14 22:09:00,
2013-04-14 18:10:00,73.3,48.2,29.84,SSW,195,14.0,14.0,41,0.00,,,0.00,Wunderground v.1.15,2013-04-14 22:10:00,
2013-04-14 18:11:00,73.3,48.2,29.84,WSW,240,10.0,15.0,41,0.00,,,0.00,Wunderground v.1.15,2013-04-14 22:11:00,
2013-04-14 18:13:00,73.1,48.0,29.84,SSW,200,12.0,15.0,41,0.00,,,0.00,Wunderground v.1.15,2013-04-14 22:13:00,
2013-04-14 18:14:00,73.1,48.0,29.84,SW,227,7.0,15.0,41,0.00,,,0.00,Wunderground v.1.15,2013-04-14 22:14:00,
2013-04-14 18:15:00,73.0,47.9,29.85,South,191,7.0,15.0,41,0.00,,,0.00,Wunderground v.1.15,2013-04-14 22:15:00,
2013-04-14 18:16:00,73.0,47.9,29.85,SW,214,4.0,15.0,41,0.00,,,0.00,Wunderground v.1.15,2013-04-14 22:16:00,
2013-04-14 18:18:00,72.9,47.8,29.85,SSW,200,8.0,15.0,41,0.00,,,0.00,Wunderground v.1.15,2013-04-14 22:18:00,
2013-04-14 18:19:00,72.9,47.8,29.85,SW,214,9.0,16.0,41,0.00,,,0.00,Wunderground v.1.15,2013-04-14 22:19:00,
2013-04-14 18:20:00,72.8,47.7,29.85,SSE,154,11.0,11.0,41,0.00,,,0.00,Wunderground v.1.15,2013-04-14 22:20:00,
2013-04-14 18:21:00,72.8,47.7,29.85,South,169,15.0,15.0,41,0.00,,,0.00,Wunderground v.1.15,2013-04-14 22:21:00,
2013-04-14 18:23:00,72.7,48.9,29.85,SSE,159,5.0,15.0,43,0.00,,,0.00,Wunderground v.1.15,2013-04-14 22:23:00,
2013-04-14 18:24:00,72.7,48.9,29.85,SSW,195,4.0,15.0,43,0.00,,,0.00,Wunderground v.1.15,2013-04-14 22:24:00,
2013-04-14 18:25:00,72.7,47.6,29.85,South,173,2.0,15.0,41,0.00,,,0.00,Wunderground v.1.15,2013-04-14 22:25:00,
2013-04-14 18:26:00,72.7,48.3,29.85,South,173,2.0,15.0,42,0.00,,,0.00,Wunderground v.1.15,2013-04-14 22:26:00,
2013-04-14 18:28:00,72.6,48.2,29.85,SSW,209,12.0,15.0,42,0.00,,,0.00,Wunderground v.1.15,2013-04-14 22:28:00,
2013-04-14 18:30:00,72.6,48.2,29.85,SSW,195,12.0,12.0,42,0.00,,,0.00,Wunderground v.1.15,2013-04-14 22:30:00,
2013-04-14 18:31:00,72.6,47.5,29.85,South,188,4.0,13.0,41,0.00,,,0.00,Wunderground v.1.15,2013-04-14 22:31:00,
2013-04-14 18:33:00,72.5,48.1,29.85,South,190,5.0,13.0,42,0.00,,,0.00,Wunderground v.1.15,2013-04-14 22:33:00,
2013-04-14 18:35:00,72.5,47.5,29.85,South,190,6.0,13.0,41,0.00,,,0.00,Wunderground v.1.15,2013-04-14 22:35:00,
2013-04-14 18:37:00,72.4,47.4,29.85,SSW,200,7.0,13.0,41,0.00,,,0.00,Wunderground v.1.15,2013-04-14 22:37:00,
2013-04-14 18:38:00,72.4,48.0,29.84,SSW,205,6.0,13.0,42,0.00,,,0.00,Wunderground v.1.15,2013-04-14 22:38:00,
2013-04-14 18:40:00,72.4,48.6,29.84,South,174,5.0,10.0,43,0.00,,,0.00,Wunderground v.1.15,2013-04-14 22:40:00,
2013-04-14 18:42:00,72.3,48.5,29.84,SE,130,10.0,10.0,43,0.00,,,0.00,Wunderground v.1.15,2013-04-14 22:42:00,
2013-04-14 18:44:00,72.2,47.2,29.84,South,181,6.0,19.0,41,0.00,,,0.00,Wunderground v.1.15,2013-04-14 22:44:00,
2013-04-14 18:45:00,72.2,47.8,29.84,South,177,7.0,19.0,42,0.00,,,0.00,Wunderground v.1.15,2013-04-14 22:45:00,
2013-04-14 18:47:00,72.1,48.4,29.84,SSW,211,5.0,19.0,43,0.00,,,0.00,Wunderground v.1.15,2013-04-14 22:47:00,
2013-04-14 18:49:00,72.0,47.6,29.84,SW,226,8.0,19.0,42,0.00,,,0.00,Wunderground v.1.15,2013-04-14 22:49:00,
2013-04-14 18:50:00,72.0,47.6,29.84,South,178,3.0,7.0,42,0.00,,,0.00,Wunderground v.1.15,2013-04-14 22:50:00,
2013-04-14 18:52:00,71.9,47.6,29.84,SSW,195,4.0,12.0,42,0.00,,,0.00,Wunderground v.1.15,2013-04-14 22:52:00,
2013-04-14 18:55:00,71.8,48.1,29.84,SSW,200,5.0,12.0,43,0.00,,,0.00,Wunderground v.1.15,2013-04-14 22:55:00,
2013-04-14 18:57:00,71.7,48.0,29.84,SW,234,1.0,12.0,43,0.00,,,0.00,Wunderground v.1.15,2013-04-14 22:57:00,
2013-04-14 18:58:00,71.7,48.0,29.84,SSW,200,7.0,12.0,43,0.00,,,0.00,Wunderground v.1.15,2013-04-14 22:58:00,
2013-04-14 19:00:00,71.5,47.2,29.84,South,186,4.0,5.0,42,0.00,,,0.00,Wunderground v.1.15,2013-04-14 23:00:00,
2013-04-14 19:02:00,71.5,47.8,29.84,WSW,249,0.0,6.0,43,0.00,,,0.00,Wunderground v.1.15,2013-04-14 23:02:00,
2013-04-14 19:03:00,71.4,47.7,29.84,South,189,2.0,6.0,43,0.00,,,0.00,Wunderground v.1.15,2013-04-14 23:03:00,
2013-04-14 19:05:00,71.3,47.6,29.84,South,186,3.0,14.0,43,0.00,,,0.00,Wunderground v.1.15,2013-04-14 23:05:00,
2013-04-14 19:07:00,71.3,47.6,29.84,SSW,195,10.0,14.0,43,0.00,,,0.00,Wunderground v.1.15,2013-04-14 23:07:00,
2013-04-14 19:08:00,71.3,47.6,29.84,South,181,12.0,14.0,43,0.00,,,0.00,Wunderground v.1.15,2013-04-14 23:08:00,
2013-04-14 19:10:00,71.2,47.6,29.84,SW,221,6.0,6.0,43,0.00,,,0.00,Wunderground v.1.15,2013-04-14 23:10:00,
2013-04-14 19:11:00,71.2,47.6,29.84,SSW,195,0.0,7.0,43,0.00,,,0.00,Wunderground v.1.15,2013-04-14 23:11:00,
2013-04-14 19:12:00,71.2,47.6,29.84,SSW,205,4.0,7.0,43,0.00,,,0.00,Wunderground v.1.15,2013-04-14 23:12:00,
2013-04-14 19:13:00,71.1,47.5,29.84,SSW,200,4.0,7.0,43,0.00,,,0.00,Wunderground v.1.15,2013-04-14 23:13:00,
2013-04-14 19:15:00,71.0,47.4,29.84,WSW,238,4.0,7.0,43,0.00,,,0.00,Wunderground v.1.15,2013-04-14 23:15:00,
2013-04-14 19:16:00,71.0,47.4,29.84,SW,231,5.0,7.0,43,0.00,,,0.00,Wunderground v.1.15,2013-04-14 23:16:00,
2013-04-14 19:18:00,71.0,48.0,29.84,South,170,4.0,9.0,44,0.00,,,0.00,Wunderground v.1.15,2013-04-14 23:18:00,
2013-04-14 19:19:00,70.9,47.9,29.84,South,181,2.0,9.0,44,0.00,,,0.00,Wunderground v.1.15,2013-04-14 23:19:00,
2013-04-14 19:21:00,70.8,47.8,29.84,South,173,4.0,12.0,44,0.00,,,0.00,Wunderground v.1.15,2013-04-14 23:21:00,
2013-04-14 19:23:00,70.7,47.7,29.84,SSW,195,4.0,12.0,44,0.00,,,0.00,Wunderground v.1.15,2013-04-14 23:23:00,
2013-04-14 19:24:00,70.7,47.7,29.84,South,180,5.0,12.0,44,0.00,,,0.00,Wunderground v.1.15,2013-04-14 23:24:00,
2013-04-14 19:26:00,70.6,47.6,29.84,SSW,195,4.0,12.0,44,0.00,,,0.00,Wunderground v.1.15,2013-04-14 23:26:00,
2013-04-14 19:28:00,70.6,47.6,29.84,SSW,195,4.0,12.0,44,0.00,,,0.00,Wunderground v.1.15,2013-04-14 23:28:00,
2013-04-14 19:30:00,70.5,47.5,29.84,South,173,1.0,5.0,44,0.00,,,0.00,Wunderground v.1.15,2013-04-14 23:30:00,
2013-04-14 19:31:00,70.4,47.4,29.85,South,180,3.0,5.0,44,0.00,,,0.00,Wunderground v.1.15,2013-04-14 23:31:00,
2013-04-14 19:32:00,70.4,47.4,29.85,South,184,4.0,5.0,44,0.00,,,0.00,Wunderground v.1.15,2013-04-14 23:32:00,
2013-04-14 19:33:00,70.4,47.4,29.85,SSE,165,5.0,6.0,44,0.00,,,0.00,Wunderground v.1.15,2013-04-14 23:33:00,
2013-04-14 19:35:00,70.3,47.9,29.85,South,191,5.0,10.0,45,0.00,,,0.00,Wunderground v.1.15,2013-04-14 23:35:00,
2013-04-14 19:36:00,70.3,47.3,29.85,SSW,195,0.0,10.0,44,0.00,,,0.00,Wunderground v.1.15,2013-04-14 23:36:00,
2013-04-14 19:37:00,70.3,47.3,29.85,South,178,4.0,10.0,44,0.00,,,0.00,Wunderground v.1.15,2013-04-14 23:37:00,
2013-04-14 19:38:00,70.2,47.9,29.85,South,176,2.0,10.0,45,0.00,,,0.00,Wunderground v.1.15,2013-04-14 23:38:00,
2013-04-14 19:40:00,70.2,47.9,29.85,SSE,164,4.0,8.0,45,0.00,,,0.00,Wunderground v.1.15,2013-04-14 23:40:00,
2013-04-14 19:41:00,70.2,47.9,29.85,South,176,5.0,8.0,45,0.00,,,0.00,Wunderground v.1.15,2013-04-14 23:41:00,
2013-04-14 19:43:00,70.1,47.2,29.85,South,178,3.0,10.0,44,0.00,,,0.00,Wunderground v.1.15,2013-04-14 23:43:00,
2013-04-14 19:44:00,70.1,47.2,29.85,South,180,5.0,10.0,44,0.00,,,0.00,Wunderground v.1.15,2013-04-14 23:44:00,
2013-04-14 19:46:00,70.1,47.8,29.85,South,180,6.0,10.0,45,0.00,,,0.00,Wunderground v.1.15,2013-04-14 23:46:00,
2013-04-14 19:47:00,70.1,47.8,29.85,South,180,1.0,10.0,45,0.00,,,0.00,Wunderground v.1.15,2013-04-14 23:47:00,
2013-04-14 19:48:00,70.0,48.3,29.85,South,180,3.0,10.0,46,0.00,,,0.00,Wunderground v.1.15,2013-04-14 23:48:00,
2013-04-14 19:49:00,70.0,47.7,29.85,South,180,4.0,10.0,45,0.00,,,0.00,Wunderground v.1.15,2013-04-14 23:49:00,
2013-04-14 19:51:00,70.0,47.7,29.85,SSW,195,3.0,8.0,45,0.00,,,0.00,Wunderground v.1.15,2013-04-14 23:51:00,
2013-04-14 19:52:00,70.0,47.7,29.85,SSW,195,5.0,8.0,45,0.00,,,0.00,Wunderground v.1.15,2013-04-14 23:52:00,
2013-04-14 19:53:00,70.0,47.7,29.85,SSW,195,9.0,9.0,45,0.00,,,0.00,Wunderground v.1.15,2013-04-14 23:53:00,
2013-04-14 19:54:00,70.0,47.7,29.85,South,178,8.0,10.0,45,0.00,,,0.00,Wunderground v.1.15,2013-04-14 23:54:00,
2013-04-14 19:56:00,70.0,47.7,29.85,South,174,2.0,10.0,45,0.00,,,0.00,Wunderground v.1.15,2013-04-14 23:56:00,
2013-04-14 19:57:00,70.0,47.7,29.85,SSW,195,5.0,10.0,45,0.00,,,0.00,Wunderground v.1.15,2013-04-14 23:57:00,
2013-04-14 19:58:00,69.9,47.6,29.85,SSW,195,10.0,10.0,45,0.00,,,0.00,Wunderground v.1.15,2013-04-14 23:58:00,
2013-04-14 19:59:00,69.9,47.6,29.85,SSW,195,5.0,10.0,45,0.00,,,0.00,Wunderground v.1.15,2013-04-14 23:59:00,
2013-04-14 20:01:00,69.9,47.6,29.85,SW,215,12.0,13.0,45,0.00,,,0.00,Wunderground v.1.15,2013-04-15 00:01:00,
2013-04-14 20:03:00,69.8,47.5,29.85,SSW,205,4.0,13.0,45,0.00,,,0.00,Wunderground v.1.15,2013-04-15 00:03:00,
2013-04-14 20:04:00,69.8,47.5,29.85,SSW,200,3.0,13.0,45,0.00,,,0.00,Wunderground v.1.15,2013-04-15 00:04:00,
2013-04-14 20:08:00,69.6,47.3,29.86,South,185,5.0,13.0,45,0.00,,,0.00,Wunderground v.1.15,2013-04-15 00:08:00,
2013-04-14 20:09:00,69.6,47.3,29.86,South,188,6.0,15.0,45,0.00,,,0.00,Wunderground v.1.15,2013-04-15 00:09:00,
2013-04-14 20:13:00,69.5,47.2,29.86,WSW,248,5.0,15.0,45,0.00,,,0.00,Wunderground v.1.15,2013-04-15 00:13:00,
2013-04-14 20:14:00,69.4,47.1,29.86,SSW,195,11.0,15.0,45,0.00,,,0.00,Wunderground v.1.15,2013-04-15 00:14:00,
2013-04-14 20:15:00,69.4,47.1,29.86,SSW,195,12.0,21.0,45,0.00,,,0.00,Wunderground v.1.15,2013-04-15 00:15:00,
2013-04-14 20:19:00,69.3,47.0,29.86,SW,230,12.0,21.0,45,0.00,,,0.00,Wunderground v.1.15,2013-04-15 00:19:00,
2013-04-14 20:20:00,69.2,46.9,29.86,SSW,200,9.0,10.0,45,0.00,,,0.00,Wunderground v.1.15,2013-04-15 00:20:00,
2013-04-14 20:24:00,69.0,46.8,29.86,SW,226,7.0,15.0,45,0.00,,,0.00,Wunderground v.1.15,2013-04-15 00:24:00,
2013-04-14 20:25:00,68.9,46.7,29.87,SSW,205,11.0,15.0,45,0.00,,,0.00,Wunderground v.1.15,2013-04-15 00:25:00,
2013-04-14 20:29:00,68.6,47.0,29.88,WSW,243,8.0,22.0,46,0.00,,,0.00,Wunderground v.1.15,2013-04-15 00:29:00,
2013-04-14 20:30:00,68.5,47.5,29.87,SSW,210,6.0,15.0,47,0.00,,,0.00,Wunderground v.1.15,2013-04-15 00:30:00,
2013-04-14 20:34:00,67.9,47.5,29.88,SW,218,7.0,22.0,48,0.00,,,0.00,Wunderground v.1.15,2013-04-15 00:34:00,
2013-04-14 20:35:00,67.8,47.4,29.87,WSW,252,9.0,22.0,48,0.00,,,0.00,Wunderground v.1.15,2013-04-15 00:35:00,
2013-04-14 20:36:00,67.8,47.4,29.87,SSW,205,19.0,22.0,48,0.00,,,0.00,Wunderground v.1.15,2013-04-15 00:36:00,
2013-04-14 20:39:00,67.3,47.5,29.88,SW,228,12.0,22.0,49,0.00,,,0.00,Wunderground v.1.15,2013-04-15 00:39:00,
2013-04-14 20:40:00,67.1,47.3,29.88,SW,219,17.0,17.0,49,0.00,,,0.00,Wunderground v.1.15,2013-04-15 00:40:00,
2013-04-14 20:42:00,66.9,47.1,29.88,SW,214,6.0,17.0,49,0.00,,,0.00,Wunderground v.1.15,2013-04-15 00:42:00,
2013-04-14 20:44:00,66.7,47.5,29.88,South,182,5.0,17.0,50,0.00,,,0.00,Wunderground v.1.15,2013-04-15 00:44:00,
2013-04-14 20:46:00,66.6,47.4,29.88,SW,228,10.0,19.0,50,0.00,,,0.00,Wunderground v.1.15,2013-04-15 00:46:00,
2013-04-14 20:47:00,66.5,47.3,29.88,South,188,9.0,19.0,50,0.00,,,0.00,Wunderground v.1.15,2013-04-15 00:47:00,
2013-04-14 20:49:00,66.3,47.6,29.88,South,178,7.0,19.0,51,0.00,,,0.00,Wunderground v.1.15,2013-04-15 00:49:00,
2013-04-14 20:51:00,66.1,47.4,29.88,SW,228,1.0,18.0,51,0.00,,,0.00,Wunderground v.1.15,2013-04-15 00:51:00,
2013-04-14 20:52:00,66.1,47.4,29.88,SSW,211,10.0,18.0,51,0.00,,,0.00,Wunderground v.1.15,2013-04-15 00:52:00,
2013-04-14 20:54:00,66.0,47.3,29.89,SSW,200,10.0,18.0,51,0.00,,,0.00,Wunderground v.1.15,2013-04-15 00:54:00,
2013-04-14 20:55:00,65.9,47.3,29.88,SW,215,10.0,18.0,51,0.00,,,0.00,Wunderground v.1.15,2013-04-15 00:55:00,
2013-04-14 20:57:00,65.8,47.7,29.89,SW,226,11.0,18.0,52,0.00,,,0.00,Wunderground v.1.15,2013-04-15 00:57:00,
2013-04-14 21:00:00,65.6,47.5,29.89,South,184,4.0,18.0,52,0.00,,,0.00,Wunderground v.1.15,2013-04-15 01:00:00,
2013-04-14 21:02:00,65.5,47.4,29.89,SSW,200,5.0,14.0,52,0.00,,,0.00,Wunderground v.1.15,2013-04-15 01:02:00,
2013-04-14 21:03:00,65.5,47.4,29.89,South,191,7.0,14.0,52,0.00,,,0.00,Wunderground v.1.15,2013-04-15 01:03:00,
2013-04-14 21:05:00,65.3,47.7,29.89,SSW,200,4.0,14.0,53,0.00,,,0.00,Wunderground v.1.15,2013-04-15 01:05:00,
2013-04-14 21:06:00,65.2,47.6,29.89,SW,226,3.0,14.0,53,0.00,,,0.00,Wunderground v.1.15,2013-04-15 01:06:00,
2013-04-14 21:07:00,65.2,47.6,29.89,South,176,10.0,14.0,53,0.00,,,0.00,Wunderground v.1.15,2013-04-15 01:07:00,
2013-04-14 21:08:00,65.2,47.6,29.89,South,191,11.0,14.0,53,0.00,,,0.00,Wunderground v.1.15,2013-04-15 01:08:00,
2013-04-14 21:10:00,65.0,47.4,29.89,SSW,200,13.0,14.0,53,0.00,,,0.00,Wunderground v.1.15,2013-04-15 01:10:00,
2013-04-14 21:11:00,65.0,47.4,29.89,South,179,6.0,11.0,53,0.00,,,0.00,Wunderground v.1.15,2013-04-15 01:11:00,
2013-04-14 21:13:00,64.9,47.4,29.89,SW,215,4.0,12.0,53,0.00,,,0.00,Wunderground v.1.15,2013-04-15 01:13:00,
2013-04-14 21:15:00,64.8,47.8,29.89,SSW,200,5.0,12.0,54,0.00,,,0.00,Wunderground v.1.15,2013-04-15 01:15:00,
2013-04-14 21:17:00,64.7,47.7,29.89,South,176,4.0,12.0,54,0.00,,,0.00,Wunderground v.1.15,2013-04-15 01:17:00,
2013-04-14 21:18:00,64.6,47.6,29.89,SW,228,3.0,12.0,54,0.00,,,0.00,Wunderground v.1.15,2013-04-15 01:18:00,
2013-04-14 21:20:00,64.5,47.5,29.89,South,180,3.0,6.0,54,0.00,,,0.00,Wunderground v.1.15,2013-04-15 01:20:00,
2013-04-14 21:23:00,64.3,47.3,29.89,SSW,212,2.0,10.0,54,0.00,,,0.00,Wunderground v.1.15,2013-04-15 01:23:00,
2013-04-14 21:25:00,64.2,47.2,29.89,SSW,195,4.0,10.0,54,0.00,,,0.00,Wunderground v.1.15,2013-04-15 01:25:00,
2013-04-14 21:28:00,64.0,47.5,29.89,South,180,11.0,11.0,55,0.00,,,0.00,Wunderground v.1.15,2013-04-15 01:28:00,
2013-04-14 21:30:00,63.9,47.4,29.89,SSW,200,4.0,11.0,55,0.00,,,0.00,Wunderground v.1.15,2013-04-15 01:30:00,
2013-04-14 21:33:00,63.7,47.2,29.89,SSW,205,4.0,6.0,55,0.00,,,0.00,Wunderground v.1.15,2013-04-15 01:33:00,
2013-04-14 21:35:00,63.6,47.6,29.89,SSW,212,0.0,8.0,56,0.00,,,0.00,Wunderground v.1.15,2013-04-15 01:35:00,
2013-04-14 21:38:00,63.5,47.5,29.89,South,188,2.0,15.0,56,0.00,,,0.00,Wunderground v.1.15,2013-04-15 01:38:00,
2013-04-14 21:40:00,63.4,47.4,29.90,SSE,156,6.0,6.0,56,0.00,,,0.00,Wunderground v.1.15,2013-04-15 01:40:00,
2013-04-14 21:43:00,63.4,47.4,29.90,SSW,209,2.0,11.0,56,0.00,,,0.00,Wunderground v.1.15,2013-04-15 01:43:00,
2013-04-14 21:45:00,63.3,47.3,29.90,South,187,7.0,11.0,56,0.00,,,0.00,Wunderground v.1.15,2013-04-15 01:45:00,
2013-04-14 21:46:00,63.2,47.2,29.90,SW,226,11.0,11.0,56,0.00,,,0.00,Wunderground v.1.15,2013-04-15 01:46:00,
2013-04-14 21:48:00,63.2,47.7,29.90,SE,144,17.0,19.0,57,0.00,,,0.00,Wunderground v.1.15,2013-04-15 01:48:00,
2013-04-14 21:49:00,63.2,47.7,29.90,SSW,200,18.0,21.0,57,0.00,,,0.00,Wunderground v.1.15,2013-04-15 01:49:00,
2013-04-14 21:50:00,63.2,47.7,29.90,SSW,200,9.0,15.0,57,0.00,,,0.00,Wunderground v.1.15,2013-04-15 01:50:00,
2013-04-14 21:52:00,63.2,47.7,29.90,SW,215,6.0,15.0,57,0.00,,,0.00,Wunderground v.1.15,2013-04-15 01:52:00,
2013-04-14 21:54:00,63.1,48.1,29.90,SSE,165,12.0,19.0,58,0.00,,,0.00,Wunderground v.1.15,2013-04-15 01:54:00,
2013-04-14 21:55:00,63.1,48.1,29.90,SSW,200,3.0,19.0,58,0.00,,,0.00,Wunderground v.1.15,2013-04-15 01:55:00,
2013-04-14 21:57:00,63.1,48.1,29.90,South,189,12.0,19.0,58,0.00,,,0.00,Wunderground v.1.15,2013-04-15 01:57:00,
2013-04-14 21:59:00,63.1,48.1,29.90,SW,217,13.0,19.0,58,0.00,,,0.00,Wunderground v.1.15,2013-04-15 01:59:00,
2013-04-14 22:00:00,63.1,48.1,29.91,South,180,6.0,8.0,58,0.00,,,0.00,Wunderground v.1.15,2013-04-15 02:00:00,
2013-04-14 22:03:00,63.1,48.5,29.91,SSE,167,4.0,13.0,59,0.00,,,0.00,Wunderground v.1.15,2013-04-15 02:03:00,
2013-04-14 22:04:00,63.1,48.5,29.90,SSE,163,6.0,13.0,59,0.00,,,0.00,Wunderground v.1.15,2013-04-15 02:04:00,
2013-04-14 22:05:00,63.0,48.4,29.90,South,189,4.0,13.0,59,0.00,,,0.00,Wunderground v.1.15,2013-04-15 02:05:00,
2013-04-14 22:08:00,62.9,48.3,29.90,South,181,11.0,13.0,59,0.00,,,0.00,Wunderground v.1.15,2013-04-15 02:08:00,
2013-04-14 22:09:00,62.9,48.3,29.90,SSE,152,5.0,16.0,59,0.00,,,0.00,Wunderground v.1.15,2013-04-15 02:09:00,
2013-04-14 22:10:00,62.9,48.3,29.91,SSE,159,8.0,9.0,59,0.00,,,0.00,Wunderground v.1.15,2013-04-15 02:10:00,
2013-04-14 22:13:00,62.8,48.3,29.91,South,183,5.0,13.0,59,0.00,,,0.00,Wunderground v.1.15,2013-04-15 02:13:00,
2013-04-14 22:14:00,62.8,48.3,29.91,South,187,1.0,13.0,59,0.00,,,0.00,Wunderground v.1.15,2013-04-15 02:14:00,
2013-04-14 22:15:00,62.7,48.2,29.91,South,184,6.0,13.0,59,0.00,,,0.00,Wunderground v.1.15,2013-04-15 02:15:00,
2013-04-14 22:16:00,62.7,48.6,29.91,SSE,159,9.0,13.0,60,0.00,,,0.00,Wunderground v.1.15,2013-04-15 02:16:00,
2013-04-14 22:18:00,62.6,48.5,29.91,South,189,6.0,13.0,60,0.00,,,0.00,Wunderground v.1.15,2013-04-15 02:18:00,
2013-04-14 22:19:00,62.5,48.4,29.91,SSE,156,18.0,18.0,60,0.00,,,0.00,Wunderground v.1.15,2013-04-15 02:19:00,
2013-04-14 22:20:00,62.5,48.4,29.91,SW,230,6.0,7.0,60,0.00,,,0.00,Wunderground v.1.15,2013-04-15 02:20:00,
2013-04-14 22:21:00,62.5,48.4,29.91,South,177,10.0,13.0,60,0.00,,,0.00,Wunderground v.1.15,2013-04-15 02:21:00,
2013-04-14 22:23:00,62.3,48.2,29.91,South,187,7.0,13.0,60,0.00,,,0.00,Wunderground v.1.15,2013-04-15 02:23:00,
2013-04-14 22:24:00,62.3,48.2,29.91,SSW,195,8.0,13.0,60,0.00,,,0.00,Wunderground v.1.15,2013-04-15 02:24:00,
2013-04-14 22:25:00,62.3,48.7,29.91,SSW,200,0.0,13.0,61,0.00,,,0.00,Wunderground v.1.15,2013-04-15 02:25:00,
2013-04-14 22:26:00,62.2,48.6,29.91,SSW,205,2.0,13.0,61,0.00,,,0.00,Wunderground v.1.15,2013-04-15 02:26:00,
2013-04-14 22:29:00,62.1,48.5,29.91,South,184,4.0,13.0,61,0.00,,,0.00,Wunderground v.1.15,2013-04-15 02:29:00,
2013-04-14 22:30:00,62.0,48.4,29.90,SSW,195,6.0,8.0,61,0.00,,,0.00,Wunderground v.1.15,2013-04-15 02:30:00,
2013-04-14 22:31:00,61.9,48.3,29.90,SSW,200,5.0,8.0,61,0.00,,,0.00,Wunderground v.1.15,2013-04-15 02:31:00,
2013-04-14 22:34:00,61.8,48.6,29.91,South,171,2.0,11.0,62,0.00,,,0.00,Wunderground v.1.15,2013-04-15 02:34:00,
2013-04-14 22:35:00,61.7,48.5,29.90,South,176,4.0,14.0,62,0.00,,,0.00,Wunderground v.1.15,2013-04-15 02:35:00,
2013-04-14 22:37:00,61.6,48.4,29.90,South,185,9.0,14.0,62,0.00,,,0.00,Wunderground v.1.15,2013-04-15 02:37:00,
2013-04-14 22:39:00,61.5,48.8,29.90,South,178,1.0,14.0,63,0.00,,,0.00,Wunderground v.1.15,2013-04-15 02:39:00,
2013-04-14 22:40:00,61.4,48.7,29.90,South,181,6.0,14.0,63,0.00,,,0.00,Wunderground v.1.15,2013-04-15 02:40:00,
2013-04-14 22:42:00,61.3,48.6,29.90,SSW,195,7.0,13.0,63,0.00,,,0.00,Wunderground v.1.15,2013-04-15 02:42:00,
2013-04-14 22:44:00,61.3,48.6,29.90,SW,214,13.0,14.0,63,0.00,,,0.00,Wunderground v.1.15,2013-04-15 02:44:00,
2013-04-14 22:45:00,61.2,48.9,29.90,SSW,195,12.0,14.0,64,0.00,,,0.00,Wunderground v.1.15,2013-04-15 02:45:00,
2013-04-14 22:47:00,61.1,48.8,29.90,South,171,3.0,14.0,64,0.00,,,0.00,Wunderground v.1.15,2013-04-15 02:47:00,
2013-04-14 22:49:00,61.1,48.8,29.90,SSW,195,2.0,14.0,64,0.00,,,0.00,Wunderground v.1.15,2013-04-15 02:49:00,
2013-04-14 22:50:00,61.0,48.7,29.90,SW,214,15.0,15.0,64,0.00,,,0.00,Wunderground v.1.15,2013-04-15 02:50:00,
2013-04-14 22:52:00,60.9,48.6,29.91,South,186,2.0,15.0,64,0.00,,,0.00,Wunderground v.1.15,2013-04-15 02:52:00,
2013-04-14 22:54:00,60.9,49.1,29.91,South,178,3.0,15.0,65,0.00,,,0.00,Wunderground v.1.15,2013-04-15 02:54:00,
2013-04-14 22:55:00,60.7,48.9,29.91,SW,227,6.0,15.0,65,0.00,,,0.00,Wunderground v.1.15,2013-04-15 02:55:00,
2013-04-14 22:57:00,60.7,48.9,29.91,South,182,9.0,15.0,65,0.00,,,0.00,Wunderground v.1.15,2013-04-15 02:57:00,
2013-04-14 22:59:00,60.6,48.8,29.91,South,176,4.0,15.0,65,0.00,,,0.00,Wunderground v.1.15,2013-04-15 02:59:00,
2013-04-14 23:00:00,60.5,48.7,29.91,SSW,205,4.0,8.0,65,0.00,,,0.00,Wunderground v.1.15,2013-04-15 03:00:00,
2013-04-14 23:01:00,60.5,48.7,29.91,South,175,15.0,15.0,65,0.00,,,0.00,Wunderground v.1.15,2013-04-15 03:01:00,
2013-04-14 23:02:00,60.5,49.1,29.91,South,189,6.0,15.0,66,0.00,,,0.00,Wunderground v.1.15,2013-04-15 03:02:00,
2013-04-14 23:04:00,60.4,49.0,29.91,SSW,205,10.0,15.0,66,0.00,,,0.00,Wunderground v.1.15,2013-04-15 03:04:00,
2013-04-14 23:05:00,60.4,49.0,29.91,SSW,195,4.0,15.0,66,0.00,,,0.00,Wunderground v.1.15,2013-04-15 03:05:00,
2013-04-14 23:06:00,60.4,49.0,29.91,SSW,195,1.0,15.0,66,0.00,,,0.00,Wunderground v.1.15,2013-04-15 03:06:00,
2013-04-14 23:08:00,60.3,48.9,29.91,SW,216,3.0,15.0,66,0.00,,,0.00,Wunderground v.1.15,2013-04-15 03:08:00,
2013-04-14 23:09:00,60.3,48.9,29.91,SSW,195,8.0,15.0,66,0.00,,,0.00,Wunderground v.1.15,2013-04-15 03:09:00,
2013-04-14 23:10:00,60.2,48.8,29.91,SSW,205,3.0,6.0,66,0.00,,,0.00,Wunderground v.1.15,2013-04-15 03:10:00,
2013-04-14 23:11:00,60.2,48.8,29.91,SSE,148,6.0,16.0,66,0.00,,,0.00,Wunderground v.1.15,2013-04-15 03:11:00,
2013-04-14 23:13:00,60.1,49.1,29.91,SSW,205,3.0,16.0,67,0.00,,,0.00,Wunderground v.1.15,2013-04-15 03:13:00,
2013-04-14 23:15:00,60.0,49.0,29.92,SW,219,3.0,16.0,67,0.00,,,0.00,Wunderground v.1.15,2013-04-15 03:15:00,
2013-04-14 23:16:00,59.9,48.9,29.91,SSW,200,5.0,16.0,67,0.00,,,0.00,Wunderground v.1.15,2013-04-15 03:16:00,
2013-04-14 23:18:00,59.8,48.8,29.91,South,181,18.0,18.0,67,0.00,,,0.00,Wunderground v.1.15,2013-04-15 03:18:00,
2013-04-14 23:20:00,59.8,49.2,29.91,SSW,209,4.0,7.0,68,0.00,,,0.00,Wunderground v.1.15,2013-04-15 03:20:00,
2013-04-14 23:21:00,59.7,49.1,29.91,SSE,163,4.0,7.0,68,0.00,,,0.00,Wunderground v.1.15,2013-04-15 03:21:00,
2013-04-14 23:22:00,59.7,49.1,29.92,SSE,166,6.0,10.0,68,0.00,,,0.00,Wunderground v.1.15,2013-04-15 03:22:00,
2013-04-14 23:23:00,59.6,49.0,29.92,SSW,195,6.0,13.0,68,0.00,,,0.00,Wunderground v.1.15,2013-04-15 03:23:00,
2013-04-14 23:25:00,59.5,48.9,29.92,South,184,13.0,13.0,68,0.00,,,0.00,Wunderground v.1.15,2013-04-15 03:25:00,
2013-04-14 23:26:00,59.5,48.9,29.92,South,182,12.0,16.0,68,0.00,,,0.00,Wunderground v.1.15,2013-04-15 03:26:00,
2013-04-14 23:27:00,59.5,48.9,29.92,South,185,4.0,16.0,68,0.00,,,0.00,Wunderground v.1.15,2013-04-15 03:27:00,
2013-04-14 23:28:00,59.5,48.9,29.92,SSW,205,10.0,16.0,68,0.00,,,0.00,Wunderground v.1.15,2013-04-15 03:28:00,
2013-04-14 23:30:00,59.4,49.2,29.91,South,174,13.0,16.0,69,0.00,,,0.00,Wunderground v.1.15,2013-04-15 03:30:00,
2013-04-14 23:32:00,59.3,49.1,29.91,SSW,200,2.0,16.0,69,0.00,,,0.00,Wunderground v.1.15,2013-04-15 03:32:00,
2013-04-14 23:33:00,59.3,49.1,29.91,SSW,195,6.0,16.0,69,0.00,,,0.00,Wunderground v.1.15,2013-04-15 03:33:00,
2013-04-14 23:35:00,59.1,48.9,29.91,SSW,200,10.0,16.0,69,0.00,,,0.00,Wunderground v.1.15,2013-04-15 03:35:00,
2013-04-14 23:37:00,59.0,48.8,29.91,SSE,168,8.0,16.0,69,0.00,,,0.00,Wunderground v.1.15,2013-04-15 03:37:00,
2013-04-14 23:38:00,59.0,48.8,29.91,SSW,205,6.0,16.0,69,0.00,,,0.00,Wunderground v.1.15,2013-04-15 03:38:00,
2013-04-14 23:40:00,59.0,48.8,29.91,South,180,4.0,8.0,69,0.00,,,0.00,Wunderground v.1.15,2013-04-15 03:40:00,
2013-04-14 23:42:00,59.0,49.2,29.91,South,175,10.0,10.0,70,0.00,,,0.00,Wunderground v.1.15,2013-04-15 03:42:00,
2013-04-14 23:43:00,59.0,49.2,29.91,SW,221,3.0,10.0,70,0.00,,,0.00,Wunderground v.1.15,2013-04-15 03:43:00,
2013-04-14 23:45:00,59.0,49.2,29.91,SE,128,3.0,10.0,70,0.00,,,0.00,Wunderground v.1.15,2013-04-15 03:45:00,
2013-04-14 23:47:00,58.9,49.1,29.92,SSE,155,11.0,11.0,70,0.00,,,0.00,Wunderground v.1.15,2013-04-15 03:47:00,
2013-04-14 23:48:00,58.9,49.1,29.92,South,188,10.0,13.0,70,0.00,,,0.00,Wunderground v.1.15,2013-04-15 03:48:00,
2013-04-14 23:51:00,58.7,48.9,29.92,SSE,159,9.0,11.0,70,0.00,,,0.00,Wunderground v.1.15,2013-04-15 03:51:00,
2013-04-14 23:52:00,58.6,49.2,29.91,South,180,1.0,11.0,71,0.00,,,0.00,Wunderground v.1.15,2013-04-15 03:52:00,
2013-04-14 23:53:00,58.6,49.2,29.91,South,179,4.0,11.0,71,0.00,,,0.00,Wunderground v.1.15,2013-04-15 03:53:00,
2013-04-14 23:57:00,58.4,49.0,29.91,SSE,159,11.0,16.0,71,0.00,,,0.00,Wunderground v.1.15,2013-04-15 03:57:00,
2013-04-14 23:58:00,58.4,49.0,29.91,SSE,168,4.0,16.0,71,0.00,,,0.00,Wunderground v.1.15,2013-04-15 03:58:00,
2013-04-14 23:59:00,58.3,48.9,29.91,SSW,195,5.0,16.0,71,0.00,,,0.00,Wunderground v.1.15,2013-04-15 03:59:00,